PWSweather.com
Personal Weather Stations
Station Observations
EI4HQ
Cork Harbour, CobhIE

Cork HarbourCobhIE

Lat: 51.85, Lon: -8.29

Elevation: 252

Station Type: Davis Vantage Pro2

http://www.corkharbourweather.ie

High Low Average
Temperature 51.3°F10.7°C 39.7°F4.3°C 46.0°F7.8°C
Dew Point 49.5°F9.7°C 36.7°F2.6°C 43.3°F6.3°C
Winds 37.0 mph 59.5 kmh 2.0 mph 3.2 kmh 15.0 mph SW24.1 kmh SW
Wind Gusts 55.0 mph88.5 kmh 4.0 mph6.4 kmh 25.0 mph40.2 kmh
Humidity 97% 75% 91%
Pressure 29.48 in998.3 mb 29.16 in987.5 mb -
Precipitation 0.24 in6.1 mm - -
Hour Temp Dew Point Humidity Winds Wind Gusts Pressure Precip Precip Rate Daily Precip Total
12:00 AM 43.9°F6.6°C 38.1°F3.4°C 80% 23.0 mph S37.0 kmh S 42.0 mph67.6 kmh 29.48 in998.3 mb 0.00 in0.0 mm 0.00 in0.0 mm 0.00 in0.0 mm
12:03 AM 43.9°F6.6°C 37.8°F3.2°C 79% 24.0 mph S38.6 kmh S 42.0 mph67.6 kmh 29.48 in998.3 mb 0.00 in0.0 mm 0.00 in0.0 mm 0.00 in0.0 mm
12:06 AM 43.9°F6.6°C 37.8°F3.2°C 79% 25.0 mph S40.2 kmh S 42.0 mph67.6 kmh 29.48 in998.3 mb 0.00 in0.0 mm 0.00 in0.0 mm 0.00 in0.0 mm
12:09 AM 44.1°F6.7°C 37.9°F3.3°C 79% 25.0 mph S40.2 kmh S 42.0 mph67.6 kmh 29.48 in998.3 mb 0.00 in0.0 mm 0.00 in0.0 mm 0.00 in0.0 mm
12:12 AM 44.1°F6.7°C 38.3°F3.5°C 80% 24.0 mph S38.6 kmh S 38.0 mph61.2 kmh 29.48 in998.3 mb 0.00 in0.0 mm 0.00 in0.0 mm 0.00 in0.0 mm
12:15 AM 44.1°F6.7°C 38.3°F3.5°C 80% 24.0 mph S38.6 kmh S 42.0 mph67.6 kmh 29.47 in998.0 mb 0.00 in0.0 mm 0.00 in0.0 mm 0.00 in0.0 mm
12:18 AM 44.1°F6.7°C 37.9°F3.3°C 79% 24.0 mph S38.6 kmh S 42.0 mph67.6 kmh 29.47 in998.0 mb 0.00 in0.0 mm 0.00 in0.0 mm 0.00 in0.0 mm
12:21 AM 44.1°F6.7°C 37.9°F3.3°C 79% 25.0 mph S40.2 kmh S 42.0 mph67.6 kmh 29.47 in998.0 mb 0.00 in0.0 mm 0.00 in0.0 mm 0.00 in0.0 mm
12:24 AM 44.1°F6.7°C 37.8°F3.2°C 78% 26.0 mph S41.8 kmh S 42.0 mph67.6 kmh 29.46 in997.6 mb 0.00 in0.0 mm 0.00 in0.0 mm 0.00 in0.0 mm
12:27 AM 44.1°F6.7°C 37.0°F2.8°C 76% 27.0 mph S43.5 kmh S 42.0 mph67.6 kmh 29.46 in997.6 mb 0.00 in0.0 mm 0.00 in0.0 mm 0.00 in0.0 mm
12:30 AM 44.1°F6.7°C 36.7°F2.6°C 75% 25.0 mph S40.2 kmh S 42.0 mph67.6 kmh 29.45 in997.3 mb 0.00 in0.0 mm 0.00 in0.0 mm 0.00 in0.0 mm
12:33 AM 44.1°F6.7°C 36.7°F2.6°C 75% 25.0 mph S40.2 kmh S 42.0 mph67.6 kmh 29.45 in997.3 mb 0.00 in0.0 mm 0.00 in0.0 mm 0.00 in0.0 mm
12:36 AM 44.1°F6.7°C 37.0°F2.8°C 76% 25.0 mph S40.2 kmh S 41.0 mph66.0 kmh 29.45 in997.3 mb 0.00 in0.0 mm 0.00 in0.0 mm 0.00 in0.0 mm
12:39 AM 44.1°F6.7°C 37.4°F3.0°C 77% 26.0 mph S41.8 kmh S 44.0 mph70.8 kmh 29.45 in997.3 mb 0.00 in0.0 mm 0.00 in0.0 mm 0.00 in0.0 mm
12:42 AM 43.9°F6.6°C 37.8°F3.2°C 79% 27.0 mph S43.5 kmh S 44.0 mph70.8 kmh 29.45 in997.3 mb 0.00 in0.0 mm 0.00 in0.0 mm 0.00 in0.0 mm
12:45 AM 43.9°F6.6°C 37.8°F3.2°C 79% 27.0 mph S43.5 kmh S 44.0 mph70.8 kmh 29.45 in997.3 mb 0.00 in0.0 mm 0.00 in0.0 mm 0.00 in0.0 mm
12:48 AM 43.9°F6.6°C 38.1°F3.4°C 80% 26.0 mph S41.8 kmh S 40.0 mph64.4 kmh 29.44 in997.0 mb 0.00 in0.0 mm 0.00 in0.0 mm 0.00 in0.0 mm
12:51 AM 43.9°F6.6°C 38.1°F3.4°C 80% 26.0 mph S41.8 kmh S 41.0 mph66.0 kmh 29.44 in997.0 mb 0.00 in0.0 mm 0.00 in0.0 mm 0.00 in0.0 mm
12:54 AM 44.1°F6.7°C 38.3°F3.5°C 80% 26.0 mph S41.8 kmh S 41.0 mph66.0 kmh 29.44 in997.0 mb 0.00 in0.0 mm 0.00 in0.0 mm 0.00 in0.0 mm
12:57 AM 44.1°F6.7°C 38.7°F3.7°C 81% 26.0 mph S41.8 kmh S 41.0 mph66.0 kmh 29.44 in997.0 mb 0.00 in0.0 mm 0.00 in0.0 mm 0.00 in0.0 mm
01:00 AM 44.1°F6.7°C 38.7°F3.7°C 81% 26.0 mph S41.8 kmh S 41.0 mph66.0 kmh 29.43 in996.6 mb 0.00 in0.0 mm 0.00 in0.0 mm 0.00 in0.0 mm
01:03 AM 44.1°F6.7°C 38.3°F3.5°C 80% 27.0 mph S43.5 kmh S 41.0 mph66.0 kmh 29.43 in996.6 mb 0.00 in0.0 mm 0.00 in0.0 mm 0.00 in0.0 mm
01:06 AM 44.2°F6.8°C 38.5°F3.6°C 80% 28.0 mph S45.1 kmh S 46.0 mph74.0 kmh 29.42 in996.3 mb 0.00 in0.0 mm 0.00 in0.0 mm 0.00 in0.0 mm
01:09 AM 44.2°F6.8°C 38.5°F3.6°C 80% 29.0 mph S46.7 kmh S 46.0 mph74.0 kmh 29.43 in996.6 mb 0.00 in0.0 mm 0.00 in0.0 mm 0.00 in0.0 mm
01:12 AM 44.2°F6.8°C 38.8°F3.8°C 81% 28.0 mph S45.1 kmh S 46.0 mph74.0 kmh 29.42 in996.3 mb 0.00 in0.0 mm 0.00 in0.0 mm 0.00 in0.0 mm
01:15 AM 44.2°F6.8°C 38.8°F3.8°C 81% 28.0 mph S45.1 kmh S 50.0 mph80.5 kmh 29.42 in996.3 mb 0.00 in0.0 mm 0.00 in0.0 mm 0.00 in0.0 mm
01:18 AM 44.2°F6.8°C 38.7°F3.7°C 81% 29.0 mph S46.7 kmh S 50.0 mph80.5 kmh 29.42 in996.3 mb 0.00 in0.0 mm 0.00 in0.0 mm 0.00 in0.0 mm
01:21 AM 44.2°F6.8°C 38.7°F3.7°C 81% 31.0 mph S49.9 kmh S 50.0 mph80.5 kmh 29.41 in995.9 mb 0.00 in0.0 mm 0.00 in0.0 mm 0.00 in0.0 mm
01:24 AM 44.2°F6.8°C 39.0°F3.9°C 82% 32.0 mph SSE51.5 kmh SSE 50.0 mph80.5 kmh 29.41 in995.9 mb 0.00 in0.0 mm 0.00 in0.0 mm 0.00 in0.0 mm
01:27 AM 44.2°F6.8°C 39.4°F4.1°C 83% 31.0 mph SSE49.9 kmh SSE 47.0 mph75.6 kmh 29.41 in995.9 mb 0.00 in0.0 mm 0.00 in0.0 mm 0.00 in0.0 mm
01:30 AM 44.1°F6.7°C 39.2°F4.0°C 83% 30.0 mph S48.3 kmh S 47.0 mph75.6 kmh 29.41 in995.9 mb 0.00 in0.0 mm 0.00 in0.0 mm 0.00 in0.0 mm
01:33 AM 43.9°F6.6°C 39.2°F4.0°C 84% 28.0 mph S45.1 kmh S 47.0 mph75.6 kmh 29.41 in995.9 mb 0.00 in0.0 mm 0.00 in0.0 mm 0.00 in0.0 mm
01:36 AM 43.7°F6.5°C 39.6°F4.2°C 85% 28.0 mph S45.1 kmh S 40.0 mph64.4 kmh 29.41 in995.9 mb 0.00 in0.0 mm 0.00 in0.0 mm 0.00 in0.0 mm
01:39 AM 43.5°F6.4°C 39.2°F4.0°C 85% 29.0 mph S46.7 kmh S 45.0 mph72.4 kmh 29.40 in995.6 mb 0.00 in0.0 mm 0.00 in0.0 mm 0.00 in0.0 mm
01:42 AM 43.5°F6.4°C 39.2°F4.0°C 85% 29.0 mph S46.7 kmh S 45.0 mph72.4 kmh 29.40 in995.6 mb 0.00 in0.0 mm 0.00 in0.0 mm 0.00 in0.0 mm
01:45 AM 43.5°F6.4°C 39.6°F4.2°C 86% 31.0 mph S49.9 kmh S 48.0 mph77.2 kmh 29.40 in995.6 mb 0.00 in0.0 mm 0.00 in0.0 mm 0.00 in0.0 mm
01:48 AM 43.5°F6.4°C 39.6°F4.2°C 86% 30.0 mph S48.3 kmh S 48.0 mph77.2 kmh 29.40 in995.6 mb 0.00 in0.0 mm 0.00 in0.0 mm 0.00 in0.0 mm
01:51 AM 43.5°F6.4°C 39.6°F4.2°C 86% 29.0 mph S46.7 kmh S 48.0 mph77.2 kmh 29.39 in995.3 mb 0.00 in0.0 mm 0.00 in0.0 mm 0.00 in0.0 mm
01:54 AM 43.5°F6.4°C 39.7°F4.3°C 86% 29.0 mph S46.7 kmh S 52.0 mph83.7 kmh 29.39 in995.3 mb 0.00 in0.0 mm 0.00 in0.0 mm 0.00 in0.0 mm
01:57 AM 43.5°F6.4°C 39.7°F4.3°C 86% 28.0 mph S45.1 kmh S 52.0 mph83.7 kmh 29.39 in995.3 mb 0.00 in0.0 mm 0.00 in0.0 mm 0.00 in0.0 mm
02:00 AM 43.5°F6.4°C 39.7°F4.3°C 86% 29.0 mph S46.7 kmh S 52.0 mph83.7 kmh 29.38 in994.9 mb 0.00 in0.0 mm 0.00 in0.0 mm 0.00 in0.0 mm
02:03 AM 43.7°F6.5°C 39.6°F4.2°C 85% 29.0 mph S46.7 kmh S 52.0 mph83.7 kmh 29.39 in995.3 mb 0.00 in0.0 mm 0.00 in0.0 mm 0.00 in0.0 mm
02:06 AM 43.7°F6.5°C 39.6°F4.2°C 85% 30.0 mph S48.3 kmh S 45.0 mph72.4 kmh 29.38 in994.9 mb 0.00 in0.0 mm 0.00 in0.0 mm 0.00 in0.0 mm
02:09 AM 43.7°F6.5°C 39.7°F4.3°C 86% 31.0 mph S49.9 kmh S 49.0 mph78.9 kmh 29.37 in994.6 mb 0.00 in0.0 mm 0.00 in0.0 mm 0.00 in0.0 mm
02:12 AM 43.9°F6.6°C 39.9°F4.4°C 86% 29.0 mph S46.7 kmh S 49.0 mph78.9 kmh 29.38 in994.9 mb 0.00 in0.0 mm 0.00 in0.0 mm 0.00 in0.0 mm
02:15 AM 43.9°F6.6°C 39.9°F4.4°C 86% 29.0 mph S46.7 kmh S 49.0 mph78.9 kmh 29.38 in994.9 mb 0.00 in0.0 mm 0.00 in0.0 mm 0.00 in0.0 mm
02:18 AM 44.1°F6.7°C 40.1°F4.5°C 86% 29.0 mph S46.7 kmh S 49.0 mph78.9 kmh 29.36 in994.2 mb 0.00 in0.0 mm 0.00 in0.0 mm 0.00 in0.0 mm
02:21 AM 44.1°F6.7°C 40.5°F4.7°C 87% 30.0 mph S48.3 kmh S 49.0 mph78.9 kmh 29.36 in994.2 mb 0.00 in0.0 mm 0.00 in0.0 mm 0.00 in0.0 mm
02:24 AM 44.1°F6.7°C 40.5°F4.7°C 87% 31.0 mph S49.9 kmh S 49.0 mph78.9 kmh 29.36 in994.2 mb 0.00 in0.0 mm 0.00 in0.0 mm 0.00 in0.0 mm
02:27 AM 44.1°F6.7°C 40.5°F4.7°C 87% 30.0 mph SSE48.3 kmh SSE 46.0 mph74.0 kmh 29.36 in994.2 mb 0.00 in0.0 mm 0.00 in0.0 mm 0.00 in0.0 mm
02:30 AM 44.1°F6.7°C 40.5°F4.7°C 87% 32.0 mph SSE51.5 kmh SSE 50.0 mph80.5 kmh 29.36 in994.2 mb 0.00 in0.0 mm 0.00 in0.0 mm 0.00 in0.0 mm
02:33 AM 44.1°F6.7°C 40.5°F4.7°C 87% 31.0 mph SSE49.9 kmh SSE 50.0 mph80.5 kmh 29.36 in994.2 mb 0.00 in0.0 mm 0.00 in0.0 mm 0.00 in0.0 mm
02:36 AM 44.1°F6.7°C 40.8°F4.9°C 88% 30.0 mph SSE48.3 kmh SSE 50.0 mph80.5 kmh 29.36 in994.2 mb 0.00 in0.0 mm 0.00 in0.0 mm 0.00 in0.0 mm
02:39 AM 44.1°F6.7°C 40.8°F4.9°C 88% 28.0 mph SSE45.1 kmh SSE 50.0 mph80.5 kmh 29.36 in994.2 mb 0.01 in0.3 mm 0.20 in5.1 mm 0.01 in0.3 mm
02:42 AM 44.1°F6.7°C 40.6°F4.8°C 88% 26.0 mph S41.8 kmh S 43.0 mph69.2 kmh 29.35 in993.9 mb 0.01 in0.3 mm 0.00 in0.0 mm 0.01 in0.3 mm
02:45 AM 44.1°F6.7°C 40.5°F4.7°C 87% 27.0 mph S43.5 kmh S 49.0 mph78.9 kmh 29.34 in993.6 mb 0.01 in0.3 mm 0.00 in0.0 mm 0.01 in0.3 mm
02:48 AM 44.1°F6.7°C 40.6°F4.8°C 88% 29.0 mph S46.7 kmh S 49.0 mph78.9 kmh 29.34 in993.6 mb 0.01 in0.3 mm 0.00 in0.0 mm 0.01 in0.3 mm
02:51 AM 43.9°F6.6°C 40.6°F4.8°C 88% 29.0 mph S46.7 kmh S 49.0 mph78.9 kmh 29.34 in993.6 mb 0.01 in0.3 mm 0.00 in0.0 mm 0.01 in0.3 mm
02:54 AM 43.9°F6.6°C 40.6°F4.8°C 88% 29.0 mph S46.7 kmh S 46.0 mph74.0 kmh 29.34 in993.6 mb 0.01 in0.3 mm 0.00 in0.0 mm 0.01 in0.3 mm
02:57 AM 43.9°F6.6°C 40.6°F4.8°C 88% 28.0 mph S45.1 kmh S 45.0 mph72.4 kmh 29.34 in993.6 mb 0.01 in0.3 mm 0.00 in0.0 mm 0.01 in0.3 mm
03:00 AM 43.9°F6.6°C 40.6°F4.8°C 88% 29.0 mph S46.7 kmh S 45.0 mph72.4 kmh 29.34 in993.6 mb 0.01 in0.3 mm 0.00 in0.0 mm 0.01 in0.3 mm
03:03 AM 43.9°F6.6°C 40.6°F4.8°C 88% 29.0 mph S46.7 kmh S 45.0 mph72.4 kmh 29.33 in993.2 mb 0.01 in0.3 mm 0.00 in0.0 mm 0.01 in0.3 mm
03:06 AM 43.9°F6.6°C 40.6°F4.8°C 88% 31.0 mph S49.9 kmh S 48.0 mph77.2 kmh 29.32 in992.9 mb 0.01 in0.3 mm 0.00 in0.0 mm 0.01 in0.3 mm
03:09 AM 43.9°F6.6°C 40.6°F4.8°C 88% 31.0 mph S49.9 kmh S 52.0 mph83.7 kmh 29.33 in993.2 mb 0.01 in0.3 mm 0.00 in0.0 mm 0.01 in0.3 mm
03:12 AM 43.9°F6.6°C 40.6°F4.8°C 88% 32.0 mph S51.5 kmh S 52.0 mph83.7 kmh 29.32 in992.9 mb 0.02 in0.5 mm 0.20 in5.1 mm 0.02 in0.5 mm
03:15 AM 43.9°F6.6°C 40.8°F4.9°C 89% 32.0 mph S51.5 kmh S 52.0 mph83.7 kmh 29.32 in992.9 mb 0.02 in0.5 mm 0.00 in0.0 mm 0.02 in0.5 mm
03:18 AM 43.9°F6.6°C 40.8°F4.9°C 89% 31.0 mph S49.9 kmh S 52.0 mph83.7 kmh 29.31 in992.6 mb 0.02 in0.5 mm 0.00 in0.0 mm 0.02 in0.5 mm
03:21 AM 43.9°F6.6°C 40.8°F4.9°C 89% 31.0 mph S49.9 kmh S 48.0 mph77.2 kmh 29.31 in992.6 mb 0.02 in0.5 mm 0.00 in0.0 mm 0.02 in0.5 mm
03:24 AM 43.9°F6.6°C 40.8°F4.9°C 89% 32.0 mph S51.5 kmh S 48.0 mph77.2 kmh 29.32 in992.9 mb 0.02 in0.5 mm 0.00 in0.0 mm 0.02 in0.5 mm
03:27 AM 43.9°F6.6°C 40.8°F4.9°C 89% 30.0 mph S48.3 kmh S 46.0 mph74.0 kmh 29.32 in992.9 mb 0.02 in0.5 mm 0.00 in0.0 mm 0.02 in0.5 mm
03:30 AM 44.1°F6.7°C 41.2°F5.1°C 90% 29.0 mph S46.7 kmh S 46.0 mph74.0 kmh 29.32 in992.9 mb 0.02 in0.5 mm 0.00 in0.0 mm 0.02 in0.5 mm
03:33 AM 44.1°F6.7°C 41.2°F5.1°C 90% 29.0 mph S46.7 kmh S 47.0 mph75.6 kmh 29.32 in992.9 mb 0.02 in0.5 mm 0.00 in0.0 mm 0.02 in0.5 mm
03:36 AM 44.1°F6.7°C 41.2°F5.1°C 90% 32.0 mph SSE51.5 kmh SSE 55.0 mph88.5 kmh 29.31 in992.6 mb 0.02 in0.5 mm 0.00 in0.0 mm 0.02 in0.5 mm
03:39 AM 43.9°F6.6°C 41.2°F5.1°C 90% 33.0 mph SSE53.1 kmh SSE 55.0 mph88.5 kmh 29.31 in992.6 mb 0.02 in0.5 mm 0.00 in0.0 mm 0.03 in0.8 mm
03:42 AM 44.1°F6.7°C 41.2°F5.1°C 90% 34.0 mph SSE54.7 kmh SSE 55.0 mph88.5 kmh 29.31 in992.6 mb 0.02 in0.5 mm 0.00 in0.0 mm 0.03 in0.8 mm
03:45 AM 43.9°F6.6°C 41.2°F5.1°C 90% 33.0 mph SSE53.1 kmh SSE 55.0 mph88.5 kmh 29.31 in992.6 mb 0.03 in0.8 mm 0.20 in5.1 mm 0.04 in1.0 mm
03:48 AM 43.9°F6.6°C 41.2°F5.1°C 90% 32.0 mph SSE51.5 kmh SSE 48.0 mph77.2 kmh 29.31 in992.6 mb 0.03 in0.8 mm 0.00 in0.0 mm 0.04 in1.0 mm
03:51 AM 43.9°F6.6°C 41.2°F5.1°C 90% 32.0 mph SSE51.5 kmh SSE 48.0 mph77.2 kmh 29.30 in992.2 mb 0.03 in0.8 mm 0.00 in0.0 mm 0.04 in1.0 mm
03:54 AM 43.9°F6.6°C 41.4°F5.2°C 91% 33.0 mph SSE53.1 kmh SSE 48.0 mph77.2 kmh 29.31 in992.6 mb 0.03 in0.8 mm 0.00 in0.0 mm 0.04 in1.0 mm
03:57 AM 43.9°F6.6°C 41.4°F5.2°C 91% 33.0 mph SSE53.1 kmh SSE 48.0 mph77.2 kmh 29.30 in992.2 mb 0.03 in0.8 mm 0.00 in0.0 mm 0.04 in1.0 mm
04:00 AM 43.9°F6.6°C 41.4°F5.2°C 91% 31.0 mph S49.9 kmh S 48.0 mph77.2 kmh 29.30 in992.2 mb 0.04 in1.0 mm 0.01 in0.3 mm 0.05 in1.3 mm
04:03 AM 43.9°F6.6°C 41.4°F5.2°C 91% 30.0 mph S48.3 kmh S 45.0 mph72.4 kmh 29.30 in992.2 mb 0.04 in1.0 mm 0.00 in0.0 mm 0.05 in1.3 mm
04:06 AM 43.9°F6.6°C 41.4°F5.2°C 91% 31.0 mph S49.9 kmh S 51.0 mph82.1 kmh 29.28 in991.5 mb 0.05 in1.3 mm 0.20 in5.1 mm 0.06 in1.5 mm
04:09 AM 43.9°F6.6°C 41.4°F5.2°C 91% 33.0 mph S53.1 kmh S 51.0 mph82.1 kmh 29.29 in991.9 mb 0.05 in1.3 mm 0.00 in0.0 mm 0.06 in1.5 mm
04:12 AM 43.9°F6.6°C 41.4°F5.2°C 91% 35.0 mph S56.3 kmh S 51.0 mph82.1 kmh 29.28 in991.5 mb 0.04 in1.0 mm 0.00 in0.0 mm 0.06 in1.5 mm
04:15 AM 43.9°F6.6°C 41.4°F5.2°C 91% 35.0 mph S56.3 kmh S 50.0 mph80.5 kmh 29.29 in991.9 mb 0.04 in1.0 mm 0.00 in0.0 mm 0.06 in1.5 mm
04:18 AM 44.1°F6.7°C 41.9°F5.5°C 92% 32.0 mph S51.5 kmh S 50.0 mph80.5 kmh 29.29 in991.9 mb 0.03 in0.8 mm 0.00 in0.0 mm 0.06 in1.5 mm
04:21 AM 44.1°F6.7°C 41.9°F5.5°C 92% 31.0 mph S49.9 kmh S 50.0 mph80.5 kmh 29.28 in991.5 mb 0.04 in1.0 mm 0.20 in5.1 mm 0.06 in1.5 mm
04:24 AM 43.9°F6.6°C 41.7°F5.4°C 92% 31.0 mph S49.9 kmh S 47.0 mph75.6 kmh 29.29 in991.9 mb 0.05 in1.3 mm 0.20 in5.1 mm 0.07 in1.8 mm
04:27 AM 43.9°F6.6°C 41.7°F5.4°C 92% 31.0 mph S49.9 kmh S 47.0 mph75.6 kmh 29.28 in991.5 mb 0.05 in1.3 mm 0.00 in0.0 mm 0.07 in1.8 mm
04:30 AM 43.9°F6.6°C 41.7°F5.4°C 92% 31.0 mph SSE49.9 kmh SSE 47.0 mph75.6 kmh 29.27 in991.2 mb 0.05 in1.3 mm 0.00 in0.0 mm 0.07 in1.8 mm
04:33 AM 43.9°F6.6°C 41.5°F5.3°C 92% 30.0 mph SSE48.3 kmh SSE 45.0 mph72.4 kmh 29.28 in991.5 mb 0.05 in1.3 mm 0.00 in0.0 mm 0.07 in1.8 mm
04:36 AM 43.9°F6.6°C 41.5°F5.3°C 92% 30.0 mph S48.3 kmh S 45.0 mph72.4 kmh 29.28 in991.5 mb 0.05 in1.3 mm 0.00 in0.0 mm 0.07 in1.8 mm
04:39 AM 43.9°F6.6°C 41.5°F5.3°C 92% 31.0 mph S49.9 kmh S 50.0 mph80.5 kmh 29.27 in991.2 mb 0.04 in1.0 mm 0.00 in0.0 mm 0.07 in1.8 mm
04:42 AM 43.9°F6.6°C 41.7°F5.4°C 92% 31.0 mph S49.9 kmh S 50.0 mph80.5 kmh 29.27 in991.2 mb 0.05 in1.3 mm 0.20 in5.1 mm 0.08 in2.0 mm
04:45 AM 43.9°F6.6°C 41.7°F5.4°C 92% 33.0 mph S53.1 kmh S 50.0 mph80.5 kmh 29.27 in991.2 mb 0.04 in1.0 mm 0.00 in0.0 mm 0.08 in2.0 mm
04:48 AM 43.9°F6.6°C 41.7°F5.4°C 92% 33.0 mph SSE53.1 kmh SSE 52.0 mph83.7 kmh 29.27 in991.2 mb 0.04 in1.0 mm 0.00 in0.0 mm 0.08 in2.0 mm
04:51 AM 44.1°F6.7°C 42.1°F5.6°C 93% 32.0 mph SSE51.5 kmh SSE 52.0 mph83.7 kmh 29.25 in990.5 mb 0.05 in1.3 mm 0.20 in5.1 mm 0.09 in2.3 mm
04:54 AM 43.9°F6.6°C 42.1°F5.6°C 93% 33.0 mph SSE53.1 kmh SSE 52.0 mph83.7 kmh 29.25 in990.5 mb 0.05 in1.3 mm 0.00 in0.0 mm 0.09 in2.3 mm
04:57 AM 43.9°F6.6°C 42.1°F5.6°C 93% 32.0 mph S51.5 kmh S 49.0 mph78.9 kmh 29.25 in990.5 mb 0.05 in1.3 mm 0.00 in0.0 mm 0.09 in2.3 mm
05:00 AM 43.9°F6.6°C 42.1°F5.6°C 93% 32.0 mph S51.5 kmh S 49.0 mph78.9 kmh 29.25 in990.5 mb 0.04 in1.0 mm 0.00 in0.0 mm 0.09 in2.3 mm
05:03 AM 44.1°F6.7°C 42.1°F5.6°C 93% 31.0 mph S49.9 kmh S 46.0 mph74.0 kmh 29.25 in990.5 mb 0.04 in1.0 mm 0.00 in0.0 mm 0.09 in2.3 mm
05:06 AM 44.1°F6.7°C 42.1°F5.6°C 93% 32.0 mph S51.5 kmh S 50.0 mph80.5 kmh 29.25 in990.5 mb 0.04 in1.0 mm 0.00 in0.0 mm 0.09 in2.3 mm
05:09 AM 44.1°F6.7°C 42.1°F5.6°C 93% 33.0 mph S53.1 kmh S 50.0 mph80.5 kmh 29.25 in990.5 mb 0.04 in1.0 mm 0.00 in0.0 mm 0.09 in2.3 mm
05:12 AM 44.1°F6.7°C 42.3°F5.7°C 93% 32.0 mph S51.5 kmh S 50.0 mph80.5 kmh 29.25 in990.5 mb 0.04 in1.0 mm 0.00 in0.0 mm 0.09 in2.3 mm
05:15 AM 44.1°F6.7°C 42.4°F5.8°C 94% 32.0 mph SSE51.5 kmh SSE 50.0 mph80.5 kmh 29.25 in990.5 mb 0.04 in1.0 mm 0.00 in0.0 mm 0.09 in2.3 mm
05:18 AM 44.2°F6.8°C 42.6°F5.9°C 94% 31.0 mph S49.9 kmh S 46.0 mph74.0 kmh 29.24 in990.2 mb 0.04 in1.0 mm 0.00 in0.0 mm 0.09 in2.3 mm
05:21 AM 44.2°F6.8°C 42.6°F5.9°C 94% 31.0 mph S49.9 kmh S 53.0 mph85.3 kmh 29.24 in990.2 mb 0.03 in0.8 mm 0.00 in0.0 mm 0.09 in2.3 mm
05:24 AM 44.2°F6.8°C 42.6°F5.9°C 94% 30.0 mph S48.3 kmh S 53.0 mph85.3 kmh 29.24 in990.2 mb 0.02 in0.5 mm 0.00 in0.0 mm 0.09 in2.3 mm
05:27 AM 44.4°F6.9°C 42.8°F6.0°C 94% 31.0 mph S49.9 kmh S 53.0 mph85.3 kmh 29.24 in990.2 mb 0.03 in0.8 mm 0.20 in5.1 mm 0.10 in2.5 mm
05:30 AM 44.4°F6.9°C 42.8°F6.0°C 94% 32.0 mph SSE51.5 kmh SSE 46.0 mph74.0 kmh 29.23 in989.8 mb 0.03 in0.8 mm 0.00 in0.0 mm 0.10 in2.5 mm
05:33 AM 44.4°F6.9°C 42.8°F6.0°C 94% 34.0 mph SSE54.7 kmh SSE 46.0 mph74.0 kmh 29.23 in989.8 mb 0.03 in0.8 mm 0.00 in0.0 mm 0.10 in2.5 mm
05:36 AM 44.2°F6.8°C 42.6°F5.9°C 94% 34.0 mph SSE54.7 kmh SSE 50.0 mph80.5 kmh 29.23 in989.8 mb 0.03 in0.8 mm 0.00 in0.0 mm 0.10 in2.5 mm
05:39 AM 44.2°F6.8°C 42.6°F5.9°C 94% 34.0 mph SSE54.7 kmh SSE 50.0 mph80.5 kmh 29.22 in989.5 mb 0.03 in0.8 mm 0.00 in0.0 mm 0.10 in2.5 mm
05:42 AM 44.2°F6.8°C 42.8°F6.0°C 95% 35.0 mph SSE56.3 kmh SSE 50.0 mph80.5 kmh 29.21 in989.2 mb 0.02 in0.5 mm 0.00 in0.0 mm 0.10 in2.5 mm
05:45 AM 44.2°F6.8°C 43.0°F6.1°C 95% 36.0 mph SSE57.9 kmh SSE 51.0 mph82.1 kmh 29.21 in989.2 mb 0.02 in0.5 mm 0.00 in0.0 mm 0.10 in2.5 mm
05:48 AM 44.4°F6.9°C 43.0°F6.1°C 95% 37.0 mph SSE59.5 kmh SSE 55.0 mph88.5 kmh 29.21 in989.2 mb 0.02 in0.5 mm 0.00 in0.0 mm 0.10 in2.5 mm
05:51 AM 44.4°F6.9°C 43.0°F6.1°C 95% 36.0 mph SSE57.9 kmh SSE 55.0 mph88.5 kmh 29.21 in989.2 mb 0.02 in0.5 mm 0.00 in0.0 mm 0.10 in2.5 mm
05:54 AM 44.4°F6.9°C 43.2°F6.2°C 95% 34.0 mph SSE54.7 kmh SSE 55.0 mph88.5 kmh 29.21 in989.2 mb 0.02 in0.5 mm 0.00 in0.0 mm 0.11 in2.8 mm
05:57 AM 44.6°F7.0°C 43.3°F6.3°C 95% 33.0 mph SSE53.1 kmh SSE 52.0 mph83.7 kmh 29.20 in988.8 mb 0.02 in0.5 mm 0.00 in0.0 mm 0.11 in2.8 mm
06:00 AM 44.8°F7.1°C 43.3°F6.3°C 95% 32.0 mph SSE51.5 kmh SSE 52.0 mph83.7 kmh 29.20 in988.8 mb 0.02 in0.5 mm 0.00 in0.0 mm 0.11 in2.8 mm
06:03 AM 44.8°F7.1°C 43.5°F6.4°C 95% 34.0 mph SSE54.7 kmh SSE 52.0 mph83.7 kmh 29.19 in988.5 mb 0.02 in0.5 mm 0.00 in0.0 mm 0.11 in2.8 mm
06:06 AM 45.0°F7.2°C 43.5°F6.4°C 95% 35.0 mph SSE56.3 kmh SSE 52.0 mph83.7 kmh 29.18 in988.1 mb 0.02 in0.5 mm 0.00 in0.0 mm 0.11 in2.8 mm
06:09 AM 45.0°F7.2°C 43.5°F6.4°C 95% 36.0 mph SSE57.9 kmh SSE 55.0 mph88.5 kmh 29.19 in988.5 mb 0.02 in0.5 mm 0.00 in0.0 mm 0.11 in2.8 mm
06:12 AM 45.0°F7.2°C 43.7°F6.5°C 95% 37.0 mph SSE59.5 kmh SSE 55.0 mph88.5 kmh 29.19 in988.5 mb 0.02 in0.5 mm 0.00 in0.0 mm 0.11 in2.8 mm
06:15 AM 45.1°F7.3°C 43.7°F6.5°C 95% 36.0 mph SSE57.9 kmh SSE 55.0 mph88.5 kmh 29.19 in988.5 mb 0.02 in0.5 mm 0.00 in0.0 mm 0.11 in2.8 mm
06:18 AM 45.1°F7.3°C 43.9°F6.6°C 95% 35.0 mph SSE56.3 kmh SSE 51.0 mph82.1 kmh 29.18 in988.1 mb 0.02 in0.5 mm 0.00 in0.0 mm 0.11 in2.8 mm
06:21 AM 45.1°F7.3°C 44.1°F6.7°C 96% 35.0 mph SSE56.3 kmh SSE 51.0 mph82.1 kmh 29.18 in988.1 mb 0.02 in0.5 mm 0.00 in0.0 mm 0.11 in2.8 mm
06:24 AM 45.3°F7.4°C 43.9°F6.6°C 95% 35.0 mph SSE56.3 kmh SSE 51.0 mph82.1 kmh 29.18 in988.1 mb 0.02 in0.5 mm 0.00 in0.0 mm 0.12 in3.0 mm
06:27 AM 45.3°F7.4°C 44.2°F6.8°C 96% 35.0 mph SSE56.3 kmh SSE 55.0 mph88.5 kmh 29.18 in988.1 mb 0.02 in0.5 mm 0.00 in0.0 mm 0.12 in3.0 mm
06:30 AM 45.3°F7.4°C 44.2°F6.8°C 96% 34.0 mph SSE54.7 kmh SSE 55.0 mph88.5 kmh 29.18 in988.1 mb 0.02 in0.5 mm 0.00 in0.0 mm 0.12 in3.0 mm
06:33 AM 45.3°F7.4°C 44.2°F6.8°C 96% 33.0 mph SSE53.1 kmh SSE 55.0 mph88.5 kmh 29.17 in987.8 mb 0.02 in0.5 mm 0.00 in0.0 mm 0.12 in3.0 mm
06:36 AM 45.3°F7.4°C 44.2°F6.8°C 96% 32.0 mph SSE51.5 kmh SSE 49.0 mph78.9 kmh 29.17 in987.8 mb 0.02 in0.5 mm 0.00 in0.0 mm 0.12 in3.0 mm
06:39 AM 45.5°F7.5°C 44.4°F6.9°C 96% 34.0 mph SSE54.7 kmh SSE 49.0 mph78.9 kmh 29.17 in987.8 mb 0.02 in0.5 mm 0.00 in0.0 mm 0.12 in3.0 mm
06:42 AM 45.7°F7.6°C 44.6°F7.0°C 96% 34.0 mph SSE54.7 kmh SSE 48.0 mph77.2 kmh 29.17 in987.8 mb 0.02 in0.5 mm 0.00 in0.0 mm 0.13 in3.3 mm
06:45 AM 45.7°F7.6°C 44.6°F7.0°C 96% 35.0 mph SSE56.3 kmh SSE 50.0 mph80.5 kmh 29.17 in987.8 mb 0.02 in0.5 mm 0.00 in0.0 mm 0.13 in3.3 mm
06:48 AM 45.7°F7.6°C 44.6°F7.0°C 96% 35.0 mph SSE56.3 kmh SSE 50.0 mph80.5 kmh 29.16 in987.5 mb 0.02 in0.5 mm 0.00 in0.0 mm 0.13 in3.3 mm
06:51 AM 45.9°F7.7°C 44.8°F7.1°C 96% 35.0 mph SSE56.3 kmh SSE 52.0 mph83.7 kmh 29.17 in987.8 mb 0.02 in0.5 mm 0.00 in0.0 mm 0.13 in3.3 mm
06:54 AM 45.9°F7.7°C 44.8°F7.1°C 96% 34.0 mph SSE54.7 kmh SSE 52.0 mph83.7 kmh 29.17 in987.8 mb 0.02 in0.5 mm 0.00 in0.0 mm 0.13 in3.3 mm
06:57 AM 45.9°F7.7°C 44.8°F7.1°C 96% 33.0 mph SSE53.1 kmh SSE 52.0 mph83.7 kmh 29.17 in987.8 mb 0.02 in0.5 mm 0.00 in0.0 mm 0.13 in3.3 mm
07:00 AM 46.0°F7.8°C 45.0°F7.2°C 96% 30.0 mph SSE48.3 kmh SSE 49.0 mph78.9 kmh 29.17 in987.8 mb 0.02 in0.5 mm 0.00 in0.0 mm 0.13 in3.3 mm
07:03 AM 46.0°F7.8°C 45.0°F7.2°C 96% 29.0 mph S46.7 kmh S 49.0 mph78.9 kmh 29.16 in987.5 mb 0.03 in0.8 mm 0.20 in5.1 mm 0.14 in3.6 mm
07:06 AM 46.0°F7.8°C 45.0°F7.2°C 96% 29.0 mph S46.7 kmh S 49.0 mph78.9 kmh 29.16 in987.5 mb 0.03 in0.8 mm 0.00 in0.0 mm 0.14 in3.6 mm
07:09 AM 46.2°F7.9°C 45.1°F7.3°C 96% 30.0 mph S48.3 kmh S 51.0 mph82.1 kmh 29.16 in987.5 mb 0.03 in0.8 mm 0.00 in0.0 mm 0.14 in3.6 mm
07:12 AM 46.2°F7.9°C 45.1°F7.3°C 96% 31.0 mph S49.9 kmh S 51.0 mph82.1 kmh 29.16 in987.5 mb 0.03 in0.8 mm 0.00 in0.0 mm 0.14 in3.6 mm
07:15 AM 46.2°F7.9°C 45.1°F7.3°C 96% 30.0 mph S48.3 kmh S 51.0 mph82.1 kmh 29.17 in987.8 mb 0.04 in1.0 mm 0.20 in5.1 mm 0.15 in3.8 mm
07:18 AM 46.4°F8.0°C 45.3°F7.4°C 96% 28.0 mph S45.1 kmh S 45.0 mph72.4 kmh 29.17 in987.8 mb 0.04 in1.0 mm 0.00 in0.0 mm 0.15 in3.8 mm
07:21 AM 46.6°F8.1°C 45.5°F7.5°C 96% 27.0 mph S43.5 kmh S 42.0 mph67.6 kmh 29.18 in988.1 mb 0.04 in1.0 mm 0.00 in0.0 mm 0.15 in3.8 mm
07:24 AM 46.6°F8.1°C 45.5°F7.5°C 96% 26.0 mph S41.8 kmh S 39.0 mph62.8 kmh 29.17 in987.8 mb 0.04 in1.0 mm 0.00 in0.0 mm 0.16 in4.1 mm
07:27 AM 46.8°F8.2°C 45.7°F7.6°C 96% 26.0 mph S41.8 kmh S 37.0 mph59.5 kmh 29.17 in987.8 mb 0.04 in1.0 mm 0.00 in0.0 mm 0.16 in4.1 mm
07:30 AM 46.8°F8.2°C 45.7°F7.6°C 96% 26.0 mph S41.8 kmh S 37.0 mph59.5 kmh 29.16 in987.5 mb 0.04 in1.0 mm 0.00 in0.0 mm 0.16 in4.1 mm
07:33 AM 46.8°F8.2°C 45.7°F7.6°C 96% 26.0 mph S41.8 kmh S 37.0 mph59.5 kmh 29.17 in987.8 mb 0.05 in1.3 mm 0.20 in5.1 mm 0.17 in4.3 mm
07:36 AM 46.9°F8.3°C 45.9°F7.7°C 96% 25.0 mph S40.2 kmh S 37.0 mph59.5 kmh 29.17 in987.8 mb 0.05 in1.3 mm 0.00 in0.0 mm 0.17 in4.3 mm
07:39 AM 46.9°F8.3°C 45.9°F7.7°C 96% 25.0 mph S40.2 kmh S 40.0 mph64.4 kmh 29.16 in987.5 mb 0.05 in1.3 mm 0.00 in0.0 mm 0.17 in4.3 mm
07:42 AM 47.1°F8.4°C 46.0°F7.8°C 96% 25.0 mph S40.2 kmh S 40.0 mph64.4 kmh 29.16 in987.5 mb 0.04 in1.0 mm 0.00 in0.0 mm 0.17 in4.3 mm
07:45 AM 47.1°F8.4°C 46.4°F8.0°C 97% 25.0 mph S40.2 kmh S 40.0 mph64.4 kmh 29.16 in987.5 mb 0.04 in1.0 mm 0.00 in0.0 mm 0.17 in4.3 mm
07:48 AM 47.3°F8.5°C 46.2°F7.9°C 96% 24.0 mph S38.6 kmh S 39.0 mph62.8 kmh 29.16 in987.5 mb 0.04 in1.0 mm 0.00 in0.0 mm 0.17 in4.3 mm
07:51 AM 47.3°F8.5°C 46.2°F7.9°C 96% 24.0 mph S38.6 kmh S 39.0 mph62.8 kmh 29.16 in987.5 mb 0.04 in1.0 mm 0.00 in0.0 mm 0.17 in4.3 mm
07:54 AM 47.5°F8.6°C 46.4°F8.0°C 96% 22.0 mph S35.4 kmh S 37.0 mph59.5 kmh 29.16 in987.5 mb 0.04 in1.0 mm 0.00 in0.0 mm 0.17 in4.3 mm
07:57 AM 47.7°F8.7°C 46.9°F8.3°C 97% 20.0 mph S32.2 kmh S 35.0 mph56.3 kmh 29.17 in987.8 mb 0.04 in1.0 mm 0.00 in0.0 mm 0.17 in4.3 mm
08:00 AM 47.8°F8.8°C 47.1°F8.4°C 97% 19.0 mph S30.6 kmh S 31.0 mph49.9 kmh 29.17 in987.8 mb 0.04 in1.0 mm 0.00 in0.0 mm 0.17 in4.3 mm
08:03 AM 48.0°F8.9°C 47.3°F8.5°C 97% 17.0 mph S27.4 kmh S 28.0 mph45.1 kmh 29.18 in988.1 mb 0.03 in0.8 mm 0.00 in0.0 mm 0.17 in4.3 mm
08:06 AM 48.2°F9.0°C 47.3°F8.5°C 97% 16.0 mph S25.7 kmh S 28.0 mph45.1 kmh 29.18 in988.1 mb 0.03 in0.8 mm 0.00 in0.0 mm 0.17 in4.3 mm
08:09 AM 48.2°F9.0°C 47.3°F8.5°C 97% 15.0 mph S24.1 kmh S 28.0 mph45.1 kmh 29.18 in988.1 mb 0.03 in0.8 mm 0.00 in0.0 mm 0.17 in4.3 mm
08:12 AM 48.4°F9.1°C 47.7°F8.7°C 97% 12.0 mph S19.3 kmh S 23.0 mph37.0 kmh 29.18 in988.1 mb 0.03 in0.8 mm 0.00 in0.0 mm 0.17 in4.3 mm
08:15 AM 48.6°F9.2°C 47.7°F8.7°C 97% 9.0 mph S14.5 kmh S 16.0 mph25.7 kmh 29.18 in988.1 mb 0.02 in0.5 mm 0.00 in0.0 mm 0.17 in4.3 mm
08:18 AM 48.7°F9.3°C 47.8°F8.8°C 97% 9.0 mph SSW14.5 kmh SSW 16.0 mph25.7 kmh 29.18 in988.1 mb 0.02 in0.5 mm 0.00 in0.0 mm 0.17 in4.3 mm
08:21 AM 48.9°F9.4°C 48.2°F9.0°C 97% 8.0 mph SW12.9 kmh SW 13.0 mph20.9 kmh 29.17 in987.8 mb 0.02 in0.5 mm 0.00 in0.0 mm 0.17 in4.3 mm
08:24 AM 49.1°F9.5°C 48.2°F9.0°C 97% 8.0 mph SW12.9 kmh SW 13.0 mph20.9 kmh 29.18 in988.1 mb 0.02 in0.5 mm 0.00 in0.0 mm 0.17 in4.3 mm
08:27 AM 49.3°F9.6°C 48.4°F9.1°C 97% 7.0 mph SW11.3 kmh SW 13.0 mph20.9 kmh 29.18 in988.1 mb 0.02 in0.5 mm 0.00 in0.0 mm 0.17 in4.3 mm
08:30 AM 49.3°F9.6°C 48.4°F9.1°C 97% 6.0 mph SW9.7 kmh SW 12.0 mph19.3 kmh 29.18 in988.1 mb 0.02 in0.5 mm 0.00 in0.0 mm 0.17 in4.3 mm
08:33 AM 49.3°F9.6°C 48.4°F9.1°C 97% 5.0 mph SW8.0 kmh SW 11.0 mph17.7 kmh 29.18 in988.1 mb 0.01 in0.3 mm 0.00 in0.0 mm 0.17 in4.3 mm
08:36 AM 49.3°F9.6°C 48.4°F9.1°C 97% 5.0 mph SW8.0 kmh SW 11.0 mph17.7 kmh 29.18 in988.1 mb 0.01 in0.3 mm 0.00 in0.0 mm 0.17 in4.3 mm
08:39 AM 49.3°F9.6°C 48.6°F9.2°C 97% 5.0 mph SW8.0 kmh SW 11.0 mph17.7 kmh 29.18 in988.1 mb 0.01 in0.3 mm 0.00 in0.0 mm 0.17 in4.3 mm
08:42 AM 49.5°F9.7°C 48.6°F9.2°C 97% 5.0 mph SW8.0 kmh SW 11.0 mph17.7 kmh 29.18 in988.1 mb 0.01 in0.3 mm 0.00 in0.0 mm 0.17 in4.3 mm
08:45 AM 49.5°F9.7°C 48.6°F9.2°C 97% 5.0 mph SSW8.0 kmh SSW 9.0 mph14.5 kmh 29.18 in988.1 mb 0.01 in0.3 mm 0.00 in0.0 mm 0.17 in4.3 mm
08:48 AM 49.5°F9.7°C 48.6°F9.2°C 97% 5.0 mph SSW8.0 kmh SSW 11.0 mph17.7 kmh 29.18 in988.1 mb 0.01 in0.3 mm 0.00 in0.0 mm 0.17 in4.3 mm
08:51 AM 49.5°F9.7°C 48.7°F9.3°C 97% 5.0 mph S8.0 kmh S 13.0 mph20.9 kmh 29.18 in988.1 mb 0.00 in0.0 mm 0.00 in0.0 mm 0.17 in4.3 mm
08:54 AM 49.6°F9.8°C 48.7°F9.3°C 97% 6.0 mph SSW9.7 kmh SSW 14.0 mph22.5 kmh 29.19 in988.5 mb 0.00 in0.0 mm 0.00 in0.0 mm 0.17 in4.3 mm
08:57 AM 49.6°F9.8°C 48.7°F9.3°C 97% 6.0 mph SSW9.7 kmh SSW 14.0 mph22.5 kmh 29.18 in988.1 mb 0.00 in0.0 mm 0.00 in0.0 mm 0.17 in4.3 mm
09:00 AM 49.6°F9.8°C 48.7°F9.3°C 97% 5.0 mph SSW8.0 kmh SSW 14.0 mph22.5 kmh 29.19 in988.5 mb 0.00 in0.0 mm 0.00 in0.0 mm 0.17 in4.3 mm
09:03 AM 49.6°F9.8°C 48.7°F9.3°C 97% 5.0 mph SSW8.0 kmh SSW 9.0 mph14.5 kmh 29.18 in988.1 mb 0.00 in0.0 mm 0.00 in0.0 mm 0.17 in4.3 mm
09:06 AM 49.6°F9.8°C 48.7°F9.3°C 97% 5.0 mph SSW8.0 kmh SSW 14.0 mph22.5 kmh 29.19 in988.5 mb 0.00 in0.0 mm 0.00 in0.0 mm 0.17 in4.3 mm
09:09 AM 49.6°F9.8°C 48.9°F9.4°C 97% 6.0 mph SSW9.7 kmh SSW 14.0 mph22.5 kmh 29.19 in988.5 mb 0.00 in0.0 mm 0.00 in0.0 mm 0.17 in4.3 mm
09:12 AM 49.6°F9.8°C 48.9°F9.4°C 97% 6.0 mph SSW9.7 kmh SSW 14.0 mph22.5 kmh 29.19 in988.5 mb 0.00 in0.0 mm 0.00 in0.0 mm 0.17 in4.3 mm
09:15 AM 49.6°F9.8°C 48.9°F9.4°C 97% 6.0 mph SSW9.7 kmh SSW 13.0 mph20.9 kmh 29.19 in988.5 mb 0.00 in0.0 mm 0.00 in0.0 mm 0.17 in4.3 mm
09:18 AM 49.8°F9.9°C 48.9°F9.4°C 97% 6.0 mph SSW9.7 kmh SSW 14.0 mph22.5 kmh 29.19 in988.5 mb 0.00 in0.0 mm 0.00 in0.0 mm 0.17 in4.3 mm
09:21 AM 49.8°F9.9°C 48.9°F9.4°C 97% 6.0 mph SW9.7 kmh SW 14.0 mph22.5 kmh 29.20 in988.8 mb 0.00 in0.0 mm 0.00 in0.0 mm 0.17 in4.3 mm
09:24 AM 49.8°F9.9°C 49.1°F9.5°C 97% 6.0 mph SW9.7 kmh SW 14.0 mph22.5 kmh 29.20 in988.8 mb 0.00 in0.0 mm 0.00 in0.0 mm 0.17 in4.3 mm
09:27 AM 49.8°F9.9°C 49.1°F9.5°C 97% 5.0 mph SW8.0 kmh SW 11.0 mph17.7 kmh 29.20 in988.8 mb 0.00 in0.0 mm 0.00 in0.0 mm 0.17 in4.3 mm
09:30 AM 49.8°F9.9°C 48.9°F9.4°C 97% 6.0 mph SW9.7 kmh SW 11.0 mph17.7 kmh 29.19 in988.5 mb 0.00 in0.0 mm 0.00 in0.0 mm 0.17 in4.3 mm
09:33 AM 49.8°F9.9°C 49.1°F9.5°C 97% 6.0 mph SW9.7 kmh SW 11.0 mph17.7 kmh 29.19 in988.5 mb 0.00 in0.0 mm 0.00 in0.0 mm 0.17 in4.3 mm
09:36 AM 49.8°F9.9°C 49.1°F9.5°C 97% 6.0 mph SSW9.7 kmh SSW 11.0 mph17.7 kmh 29.19 in988.5 mb 0.00 in0.0 mm 0.00 in0.0 mm 0.17 in4.3 mm
09:39 AM 49.8°F9.9°C 49.1°F9.5°C 97% 6.0 mph SSW9.7 kmh SSW 11.0 mph17.7 kmh 29.19 in988.5 mb 0.00 in0.0 mm 0.00 in0.0 mm 0.17 in4.3 mm
09:42 AM 49.8°F9.9°C 49.1°F9.5°C 97% 6.0 mph SSW9.7 kmh SSW 11.0 mph17.7 kmh 29.19 in988.5 mb 0.00 in0.0 mm 0.00 in0.0 mm 0.17 in4.3 mm
09:45 AM 50.0°F10.0°C 49.1°F9.5°C 97% 6.0 mph SSW9.7 kmh SSW 12.0 mph19.3 kmh 29.19 in988.5 mb 0.00 in0.0 mm 0.00 in0.0 mm 0.17 in4.3 mm
09:48 AM 50.0°F10.0°C 49.1°F9.5°C 97% 6.0 mph SW9.7 kmh SW 16.0 mph25.7 kmh 29.20 in988.8 mb 0.00 in0.0 mm 0.00 in0.0 mm 0.17 in4.3 mm
09:51 AM 50.0°F10.0°C 49.1°F9.5°C 97% 7.0 mph SW11.3 kmh SW 16.0 mph25.7 kmh 29.20 in988.8 mb 0.00 in0.0 mm 0.00 in0.0 mm 0.17 in4.3 mm
09:54 AM 50.0°F10.0°C 49.1°F9.5°C 97% 7.0 mph SW11.3 kmh SW 16.0 mph25.7 kmh 29.21 in989.2 mb 0.00 in0.0 mm 0.00 in0.0 mm 0.17 in4.3 mm
09:57 AM 50.0°F10.0°C 49.1°F9.5°C 97% 7.0 mph SW11.3 kmh SW 15.0 mph24.1 kmh 29.21 in989.2 mb 0.00 in0.0 mm 0.00 in0.0 mm 0.17 in4.3 mm
10:00 AM 50.0°F10.0°C 49.1°F9.5°C 97% 7.0 mph SW11.3 kmh SW 15.0 mph24.1 kmh 29.21 in989.2 mb 0.00 in0.0 mm 0.00 in0.0 mm 0.17 in4.3 mm
10:03 AM 50.2°F10.1°C 49.3°F9.6°C 97% 7.0 mph SW11.3 kmh SW 14.0 mph22.5 kmh 29.21 in989.2 mb 0.00 in0.0 mm 0.00 in0.0 mm 0.17 in4.3 mm
10:06 AM 50.2°F10.1°C 49.5°F9.7°C 97% 7.0 mph SW11.3 kmh SW 14.0 mph22.5 kmh 29.21 in989.2 mb 0.00 in0.0 mm 0.00 in0.0 mm 0.17 in4.3 mm
10:09 AM 50.2°F10.1°C 49.5°F9.7°C 97% 7.0 mph SW11.3 kmh SW 14.0 mph22.5 kmh 29.20 in988.8 mb 0.00 in0.0 mm 0.00 in0.0 mm 0.17 in4.3 mm
10:12 AM 50.2°F10.1°C 49.5°F9.7°C 97% 7.0 mph SW11.3 kmh SW 14.0 mph22.5 kmh 29.21 in989.2 mb 0.00 in0.0 mm 0.00 in0.0 mm 0.17 in4.3 mm
10:15 AM 50.2°F10.1°C 49.5°F9.7°C 97% 7.0 mph SW11.3 kmh SW 14.0 mph22.5 kmh 29.21 in989.2 mb 0.00 in0.0 mm 0.00 in0.0 mm 0.17 in4.3 mm
10:18 AM 50.2°F10.1°C 49.5°F9.7°C 97% 7.0 mph SW11.3 kmh SW 14.0 mph22.5 kmh 29.21 in989.2 mb 0.00 in0.0 mm 0.00 in0.0 mm 0.17 in4.3 mm
10:21 AM 50.2°F10.1°C 49.5°F9.7°C 97% 6.0 mph SW9.7 kmh SW 12.0 mph19.3 kmh 29.21 in989.2 mb 0.00 in0.0 mm 0.00 in0.0 mm 0.17 in4.3 mm
10:24 AM 50.2°F10.1°C 49.5°F9.7°C 97% 5.0 mph SW8.0 kmh SW 11.0 mph17.7 kmh 29.21 in989.2 mb 0.00 in0.0 mm 0.00 in0.0 mm 0.17 in4.3 mm
10:27 AM 50.2°F10.1°C 49.5°F9.7°C 97% 5.0 mph SW8.0 kmh SW 11.0 mph17.7 kmh 29.21 in989.2 mb 0.00 in0.0 mm 0.00 in0.0 mm 0.17 in4.3 mm
10:30 AM 50.2°F10.1°C 49.3°F9.6°C 97% 6.0 mph SW9.7 kmh SW 13.0 mph20.9 kmh 29.21 in989.2 mb 0.00 in0.0 mm 0.00 in0.0 mm 0.17 in4.3 mm
10:33 AM 50.2°F10.1°C 49.5°F9.7°C 97% 7.0 mph SW11.3 kmh SW 13.0 mph20.9 kmh 29.21 in989.2 mb 0.00 in0.0 mm 0.00 in0.0 mm 0.17 in4.3 mm
10:36 AM 50.2°F10.1°C 49.5°F9.7°C 97% 7.0 mph SW11.3 kmh SW 13.0 mph20.9 kmh 29.22 in989.5 mb 0.00 in0.0 mm 0.00 in0.0 mm 0.17 in4.3 mm
10:39 AM 50.2°F10.1°C 49.5°F9.7°C 97% 8.0 mph WSW12.9 kmh WSW 15.0 mph24.1 kmh 29.22 in989.5 mb 0.00 in0.0 mm 0.00 in0.0 mm 0.17 in4.3 mm
10:42 AM 50.2°F10.1°C 49.5°F9.7°C 97% 8.0 mph WSW12.9 kmh WSW 16.0 mph25.7 kmh 29.22 in989.5 mb 0.00 in0.0 mm 0.00 in0.0 mm 0.17 in4.3 mm
10:45 AM 50.2°F10.1°C 49.5°F9.7°C 97% 9.0 mph WSW14.5 kmh WSW 16.0 mph25.7 kmh 29.21 in989.2 mb 0.00 in0.0 mm 0.00 in0.0 mm 0.17 in4.3 mm
10:48 AM 50.2°F10.1°C 48.9°F9.4°C 96% 8.0 mph WSW12.9 kmh WSW 16.0 mph25.7 kmh 29.22 in989.5 mb 0.00 in0.0 mm 0.00 in0.0 mm 0.17 in4.3 mm
10:51 AM 50.0°F10.0°C 48.9°F9.4°C 96% 8.0 mph WSW12.9 kmh WSW 16.0 mph25.7 kmh 29.22 in989.5 mb 0.00 in0.0 mm 0.00 in0.0 mm 0.17 in4.3 mm
10:54 AM 49.8°F9.9°C 48.7°F9.3°C 96% 8.0 mph WSW12.9 kmh WSW 16.0 mph25.7 kmh 29.21 in989.2 mb 0.00 in0.0 mm 0.00 in0.0 mm 0.17 in4.3 mm
10:57 AM 49.6°F9.8°C 48.6°F9.2°C 96% 9.0 mph WSW14.5 kmh WSW 16.0 mph25.7 kmh 29.22 in989.5 mb 0.00 in0.0 mm 0.00 in0.0 mm 0.17 in4.3 mm
11:00 AM 49.6°F9.8°C 48.6°F9.2°C 96% 10.0 mph WSW16.1 kmh WSW 16.0 mph25.7 kmh 29.22 in989.5 mb 0.00 in0.0 mm 0.00 in0.0 mm 0.17 in4.3 mm
11:03 AM 49.5°F9.7°C 48.4°F9.1°C 96% 9.0 mph WSW14.5 kmh WSW 16.0 mph25.7 kmh 29.22 in989.5 mb 0.01 in0.3 mm 0.20 in5.1 mm 0.18 in4.6 mm
11:06 AM 49.3°F9.6°C 48.2°F9.0°C 96% 8.0 mph WSW12.9 kmh WSW 16.0 mph25.7 kmh 29.22 in989.5 mb 0.01 in0.3 mm 0.00 in0.0 mm 0.18 in4.6 mm
11:09 AM 49.3°F9.6°C 48.2°F9.0°C 96% 8.0 mph WSW12.9 kmh WSW 15.0 mph24.1 kmh 29.22 in989.5 mb 0.01 in0.3 mm 0.00 in0.0 mm 0.18 in4.6 mm
11:12 AM 49.1°F9.5°C 48.0°F8.9°C 96% 8.0 mph WSW12.9 kmh WSW 17.0 mph27.4 kmh 29.22 in989.5 mb 0.01 in0.3 mm 0.00 in0.0 mm 0.18 in4.6 mm
11:15 AM 49.1°F9.5°C 48.0°F8.9°C 96% 8.0 mph WSW12.9 kmh WSW 17.0 mph27.4 kmh 29.22 in989.5 mb 0.01 in0.3 mm 0.00 in0.0 mm 0.18 in4.6 mm
11:18 AM 48.9°F9.4°C 47.8°F8.8°C 96% 9.0 mph WSW14.5 kmh WSW 17.0 mph27.4 kmh 29.22 in989.5 mb 0.01 in0.3 mm 0.00 in0.0 mm 0.18 in4.6 mm
11:21 AM 48.9°F9.4°C 47.8°F8.8°C 96% 9.0 mph WSW14.5 kmh WSW 17.0 mph27.4 kmh 29.22 in989.5 mb 0.01 in0.3 mm 0.00 in0.0 mm 0.18 in4.6 mm
11:24 AM 48.9°F9.4°C 47.8°F8.8°C 96% 9.0 mph WSW14.5 kmh WSW 15.0 mph24.1 kmh 29.21 in989.2 mb 0.01 in0.3 mm 0.00 in0.0 mm 0.18 in4.6 mm
11:27 AM 48.9°F9.4°C 47.8°F8.8°C 96% 8.0 mph WSW12.9 kmh WSW 15.0 mph24.1 kmh 29.21 in989.2 mb 0.01 in0.3 mm 0.00 in0.0 mm 0.18 in4.6 mm
11:30 AM 48.9°F9.4°C 47.8°F8.8°C 96% 7.0 mph WSW11.3 kmh WSW 13.0 mph20.9 kmh 29.21 in989.2 mb 0.01 in0.3 mm 0.00 in0.0 mm 0.18 in4.6 mm
11:33 AM 48.9°F9.4°C 47.8°F8.8°C 96% 7.0 mph SW11.3 kmh SW 14.0 mph22.5 kmh 29.21 in989.2 mb 0.01 in0.3 mm 0.00 in0.0 mm 0.18 in4.6 mm
11:36 AM 48.7°F9.3°C 47.7°F8.7°C 96% 7.0 mph SW11.3 kmh SW 14.0 mph22.5 kmh 29.21 in989.2 mb 0.01 in0.3 mm 0.00 in0.0 mm 0.18 in4.6 mm
11:39 AM 48.7°F9.3°C 47.7°F8.7°C 96% 7.0 mph SW11.3 kmh SW 14.0 mph22.5 kmh 29.22 in989.5 mb 0.01 in0.3 mm 0.00 in0.0 mm 0.18 in4.6 mm
11:42 AM 48.7°F9.3°C 47.7°F8.7°C 96% 7.0 mph SW11.3 kmh SW 12.0 mph19.3 kmh 29.22 in989.5 mb 0.01 in0.3 mm 0.00 in0.0 mm 0.18 in4.6 mm
11:45 AM 48.7°F9.3°C 47.7°F8.7°C 96% 7.0 mph SW11.3 kmh SW 12.0 mph19.3 kmh 29.22 in989.5 mb 0.01 in0.3 mm 0.00 in0.0 mm 0.18 in4.6 mm
11:48 AM 48.7°F9.3°C 47.7°F8.7°C 96% 7.0 mph SW11.3 kmh SW 12.0 mph19.3 kmh 29.22 in989.5 mb 0.01 in0.3 mm 0.00 in0.0 mm 0.18 in4.6 mm
11:51 AM 48.9°F9.4°C 47.8°F8.8°C 96% 6.0 mph SW9.7 kmh SW 12.0 mph19.3 kmh 29.23 in989.8 mb 0.01 in0.3 mm 0.00 in0.0 mm 0.18 in4.6 mm
11:54 AM 48.9°F9.4°C 47.8°F8.8°C 96% 6.0 mph SW9.7 kmh SW 12.0 mph19.3 kmh 29.22 in989.5 mb 0.01 in0.3 mm 0.00 in0.0 mm 0.18 in4.6 mm
11:57 AM 49.1°F9.5°C 48.0°F8.9°C 96% 5.0 mph SW8.0 kmh SW 10.0 mph16.1 kmh 29.23 in989.8 mb 0.01 in0.3 mm 0.00 in0.0 mm 0.18 in4.6 mm
12:00 PM 49.3°F9.6°C 48.2°F9.0°C 96% 5.0 mph SW8.0 kmh SW 10.0 mph16.1 kmh 29.22 in989.5 mb 0.01 in0.3 mm 0.00 in0.0 mm 0.18 in4.6 mm
12:03 PM 49.5°F9.7°C 48.7°F9.3°C 97% 5.0 mph SSW8.0 kmh SSW 12.0 mph19.3 kmh 29.22 in989.5 mb 0.00 in0.0 mm 0.00 in0.0 mm 0.18 in4.6 mm
12:06 PM 49.5°F9.7°C 48.4°F9.1°C 96% 6.0 mph SSW9.7 kmh SSW 15.0 mph24.1 kmh 29.22 in989.5 mb 0.00 in0.0 mm 0.00 in0.0 mm 0.18 in4.6 mm
12:09 PM 49.5°F9.7°C 48.4°F9.1°C 96% 7.0 mph SSW11.3 kmh SSW 15.0 mph24.1 kmh 29.22 in989.5 mb 0.00 in0.0 mm 0.00 in0.0 mm 0.18 in4.6 mm
12:12 PM 49.5°F9.7°C 48.4°F9.1°C 96% 7.0 mph SW11.3 kmh SW 15.0 mph24.1 kmh 29.23 in989.8 mb 0.00 in0.0 mm 0.00 in0.0 mm 0.18 in4.6 mm
12:15 PM 49.5°F9.7°C 48.4°F9.1°C 96% 7.0 mph SW11.3 kmh SW 14.0 mph22.5 kmh 29.23 in989.8 mb 0.00 in0.0 mm 0.00 in0.0 mm 0.18 in4.6 mm
12:18 PM 49.5°F9.7°C 48.4°F9.1°C 96% 8.0 mph SW12.9 kmh SW 15.0 mph24.1 kmh 29.23 in989.8 mb 0.00 in0.0 mm 0.00 in0.0 mm 0.18 in4.6 mm
12:21 PM 49.5°F9.7°C 48.4°F9.1°C 96% 7.0 mph SW11.3 kmh SW 15.0 mph24.1 kmh 29.24 in990.2 mb 0.00 in0.0 mm 0.00 in0.0 mm 0.18 in4.6 mm
12:24 PM 49.5°F9.7°C 48.4°F9.1°C 96% 7.0 mph SW11.3 kmh SW 15.0 mph24.1 kmh 29.23 in989.8 mb 0.00 in0.0 mm 0.00 in0.0 mm 0.18 in4.6 mm
12:27 PM 49.5°F9.7°C 48.4°F9.1°C 96% 7.0 mph SW11.3 kmh SW 13.0 mph20.9 kmh 29.24 in990.2 mb 0.00 in0.0 mm 0.00 in0.0 mm 0.18 in4.6 mm
12:30 PM 49.5°F9.7°C 48.4°F9.1°C 96% 7.0 mph SW11.3 kmh SW 13.0 mph20.9 kmh 29.23 in989.8 mb 0.00 in0.0 mm 0.00 in0.0 mm 0.18 in4.6 mm
12:33 PM 49.5°F9.7°C 48.4°F9.1°C 96% 7.0 mph WSW11.3 kmh WSW 13.0 mph20.9 kmh 29.24 in990.2 mb 0.00 in0.0 mm 0.00 in0.0 mm 0.18 in4.6 mm
12:36 PM 49.6°F9.8°C 48.6°F9.2°C 96% 7.0 mph SW11.3 kmh SW 13.0 mph20.9 kmh 29.24 in990.2 mb 0.00 in0.0 mm 0.00 in0.0 mm 0.18 in4.6 mm
12:39 PM 49.5°F9.7°C 48.4°F9.1°C 96% 7.0 mph WSW11.3 kmh WSW 13.0 mph20.9 kmh 29.24 in990.2 mb 0.00 in0.0 mm 0.00 in0.0 mm 0.18 in4.6 mm
12:42 PM 49.6°F9.8°C 48.6°F9.2°C 96% 7.0 mph WSW11.3 kmh WSW 12.0 mph19.3 kmh 29.24 in990.2 mb 0.00 in0.0 mm 0.00 in0.0 mm 0.18 in4.6 mm
12:45 PM 49.6°F9.8°C 48.6°F9.2°C 96% 6.0 mph WSW9.7 kmh WSW 11.0 mph17.7 kmh 29.24 in990.2 mb 0.00 in0.0 mm 0.00 in0.0 mm 0.18 in4.6 mm
12:48 PM 49.6°F9.8°C 48.6°F9.2°C 96% 7.0 mph WSW11.3 kmh WSW 12.0 mph19.3 kmh 29.24 in990.2 mb 0.00 in0.0 mm 0.00 in0.0 mm 0.18 in4.6 mm
12:51 PM 49.8°F9.9°C 48.7°F9.3°C 96% 7.0 mph WSW11.3 kmh WSW 14.0 mph22.5 kmh 29.25 in990.5 mb 0.00 in0.0 mm 0.00 in0.0 mm 0.18 in4.6 mm
12:54 PM 49.8°F9.9°C 48.7°F9.3°C 96% 8.0 mph WSW12.9 kmh WSW 18.0 mph29.0 kmh 29.25 in990.5 mb 0.00 in0.0 mm 0.00 in0.0 mm 0.18 in4.6 mm
12:57 PM 49.8°F9.9°C 48.4°F9.1°C 95% 9.0 mph WSW14.5 kmh WSW 18.0 mph29.0 kmh 29.24 in990.2 mb 0.00 in0.0 mm 0.00 in0.0 mm 0.18 in4.6 mm
01:00 PM 49.8°F9.9°C 48.6°F9.2°C 95% 8.0 mph WSW12.9 kmh WSW 18.0 mph29.0 kmh 29.24 in990.2 mb 0.00 in0.0 mm 0.00 in0.0 mm 0.18 in4.6 mm
01:03 PM 50.0°F10.0°C 48.6°F9.2°C 95% 8.0 mph WSW12.9 kmh WSW 18.0 mph29.0 kmh 29.24 in990.2 mb 0.00 in0.0 mm 0.00 in0.0 mm 0.18 in4.6 mm
01:06 PM 50.0°F10.0°C 48.6°F9.2°C 95% 8.0 mph WSW12.9 kmh WSW 16.0 mph25.7 kmh 29.24 in990.2 mb 0.00 in0.0 mm 0.00 in0.0 mm 0.18 in4.6 mm
01:09 PM 50.0°F10.0°C 48.6°F9.2°C 95% 8.0 mph WSW12.9 kmh WSW 16.0 mph25.7 kmh 29.25 in990.5 mb 0.00 in0.0 mm 0.00 in0.0 mm 0.18 in4.6 mm
01:12 PM 50.2°F10.1°C 48.4°F9.1°C 94% 8.0 mph WSW12.9 kmh WSW 17.0 mph27.4 kmh 29.25 in990.5 mb 0.00 in0.0 mm 0.00 in0.0 mm 0.18 in4.6 mm
01:15 PM 50.2°F10.1°C 48.4°F9.1°C 94% 8.0 mph WSW12.9 kmh WSW 17.0 mph27.4 kmh 29.25 in990.5 mb 0.00 in0.0 mm 0.00 in0.0 mm 0.18 in4.6 mm
01:18 PM 50.2°F10.1°C 48.4°F9.1°C 94% 9.0 mph WSW14.5 kmh WSW 18.0 mph29.0 kmh 29.25 in990.5 mb 0.00 in0.0 mm 0.00 in0.0 mm 0.18 in4.6 mm
01:21 PM 50.2°F10.1°C 48.6°F9.2°C 94% 9.0 mph WSW14.5 kmh WSW 19.0 mph30.6 kmh 29.24 in990.2 mb 0.00 in0.0 mm 0.00 in0.0 mm 0.18 in4.6 mm
01:24 PM 50.4°F10.2°C 48.6°F9.2°C 94% 9.0 mph SW14.5 kmh SW 19.0 mph30.6 kmh 29.25 in990.5 mb 0.00 in0.0 mm 0.00 in0.0 mm 0.18 in4.6 mm
01:27 PM 50.4°F10.2°C 48.7°F9.3°C 94% 9.0 mph WSW14.5 kmh WSW 19.0 mph30.6 kmh 29.25 in990.5 mb 0.00 in0.0 mm 0.00 in0.0 mm 0.18 in4.6 mm
01:30 PM 50.5°F10.3°C 48.6°F9.2°C 93% 9.0 mph WSW14.5 kmh WSW 17.0 mph27.4 kmh 29.25 in990.5 mb 0.00 in0.0 mm 0.00 in0.0 mm 0.18 in4.6 mm
01:33 PM 50.7°F10.4°C 48.7°F9.3°C 93% 8.0 mph WSW12.9 kmh WSW 17.0 mph27.4 kmh 29.25 in990.5 mb 0.00 in0.0 mm 0.00 in0.0 mm 0.18 in4.6 mm
01:36 PM 51.1°F10.6°C 49.1°F9.5°C 93% 8.0 mph WSW12.9 kmh WSW 17.0 mph27.4 kmh 29.25 in990.5 mb 0.00 in0.0 mm 0.00 in0.0 mm 0.18 in4.6 mm
01:39 PM 51.3°F10.7°C 49.3°F9.6°C 93% 8.0 mph WSW12.9 kmh WSW 17.0 mph27.4 kmh 29.25 in990.5 mb 0.00 in0.0 mm 0.00 in0.0 mm 0.18 in4.6 mm
01:42 PM 51.3°F10.7°C 49.1°F9.5°C 92% 8.0 mph WSW12.9 kmh WSW 17.0 mph27.4 kmh 29.25 in990.5 mb 0.00 in0.0 mm 0.00 in0.0 mm 0.18 in4.6 mm
01:45 PM 51.3°F10.7°C 49.1°F9.5°C 92% 9.0 mph WSW14.5 kmh WSW 17.0 mph27.4 kmh 29.25 in990.5 mb 0.00 in0.0 mm 0.00 in0.0 mm 0.18 in4.6 mm
01:48 PM 51.3°F10.7°C 48.4°F9.1°C 90% 9.0 mph WSW14.5 kmh WSW 18.0 mph29.0 kmh 29.25 in990.5 mb 0.00 in0.0 mm 0.00 in0.0 mm 0.18 in4.6 mm
01:51 PM 51.1°F10.6°C 47.8°F8.8°C 89% 10.0 mph WSW16.1 kmh WSW 23.0 mph37.0 kmh 29.25 in990.5 mb 0.00 in0.0 mm 0.00 in0.0 mm 0.18 in4.6 mm
01:54 PM 51.1°F10.6°C 47.8°F8.8°C 89% 10.0 mph WSW16.1 kmh WSW 23.0 mph37.0 kmh 29.26 in990.9 mb 0.00 in0.0 mm 0.00 in0.0 mm 0.18 in4.6 mm
01:57 PM 50.9°F10.5°C 47.5°F8.6°C 88% 11.0 mph WSW17.7 kmh WSW 23.0 mph37.0 kmh 29.26 in990.9 mb 0.00 in0.0 mm 0.00 in0.0 mm 0.18 in4.6 mm
02:00 PM 50.7°F10.4°C 47.1°F8.4°C 87% 11.0 mph WSW17.7 kmh WSW 23.0 mph37.0 kmh 29.26 in990.9 mb 0.00 in0.0 mm 0.00 in0.0 mm 0.18 in4.6 mm
02:03 PM 50.5°F10.3°C 46.6°F8.1°C 86% 10.0 mph WSW16.1 kmh WSW 20.0 mph32.2 kmh 29.26 in990.9 mb 0.00 in0.0 mm 0.00 in0.0 mm 0.18 in4.6 mm
02:06 PM 50.4°F10.2°C 45.7°F7.6°C 84% 9.0 mph WSW14.5 kmh WSW 20.0 mph32.2 kmh 29.26 in990.9 mb 0.00 in0.0 mm 0.00 in0.0 mm 0.18 in4.6 mm
02:09 PM 50.2°F10.1°C 45.9°F7.7°C 85% 9.0 mph WSW14.5 kmh WSW 20.0 mph32.2 kmh 29.26 in990.9 mb 0.00 in0.0 mm 0.00 in0.0 mm 0.18 in4.6 mm
02:12 PM 50.0°F10.0°C 45.3°F7.4°C 84% 9.0 mph WSW14.5 kmh WSW 18.0 mph29.0 kmh 29.27 in991.2 mb 0.00 in0.0 mm 0.00 in0.0 mm 0.18 in4.6 mm
02:15 PM 49.8°F9.9°C 45.3°F7.4°C 84% 9.0 mph WSW14.5 kmh WSW 18.0 mph29.0 kmh 29.27 in991.2 mb 0.00 in0.0 mm 0.00 in0.0 mm 0.18 in4.6 mm
02:18 PM 49.6°F9.8°C 45.3°F7.4°C 85% 9.0 mph WSW14.5 kmh WSW 18.0 mph29.0 kmh 29.27 in991.2 mb 0.00 in0.0 mm 0.00 in0.0 mm 0.18 in4.6 mm
02:21 PM 49.6°F9.8°C 45.3°F7.4°C 85% 10.0 mph WSW16.1 kmh WSW 18.0 mph29.0 kmh 29.27 in991.2 mb 0.00 in0.0 mm 0.00 in0.0 mm 0.18 in4.6 mm
02:24 PM 49.5°F9.7°C 45.1°F7.3°C 85% 9.0 mph WSW14.5 kmh WSW 18.0 mph29.0 kmh 29.27 in991.2 mb 0.00 in0.0 mm 0.00 in0.0 mm 0.18 in4.6 mm
02:27 PM 49.3°F9.6°C 44.6°F7.0°C 84% 9.0 mph WSW14.5 kmh WSW 18.0 mph29.0 kmh 29.27 in991.2 mb 0.00 in0.0 mm 0.00 in0.0 mm 0.18 in4.6 mm
02:30 PM 49.3°F9.6°C 45.0°F7.2°C 85% 9.0 mph WSW14.5 kmh WSW 18.0 mph29.0 kmh 29.27 in991.2 mb 0.00 in0.0 mm 0.00 in0.0 mm 0.18 in4.6 mm
02:33 PM 49.3°F9.6°C 45.0°F7.2°C 85% 8.0 mph WSW12.9 kmh WSW 15.0 mph24.1 kmh 29.27 in991.2 mb 0.00 in0.0 mm 0.00 in0.0 mm 0.18 in4.6 mm
02:36 PM 49.3°F9.6°C 45.0°F7.2°C 85% 8.0 mph WSW12.9 kmh WSW 15.0 mph24.1 kmh 29.27 in991.2 mb 0.00 in0.0 mm 0.00 in0.0 mm 0.18 in4.6 mm
02:39 PM 49.3°F9.6°C 45.0°F7.2°C 85% 8.0 mph WSW12.9 kmh WSW 15.0 mph24.1 kmh 29.27 in991.2 mb 0.00 in0.0 mm 0.00 in0.0 mm 0.18 in4.6 mm
02:42 PM 49.3°F9.6°C 45.3°F7.4°C 86% 8.0 mph WSW12.9 kmh WSW 15.0 mph24.1 kmh 29.27 in991.2 mb 0.00 in0.0 mm 0.00 in0.0 mm 0.18 in4.6 mm
02:45 PM 49.5°F9.7°C 45.3°F7.4°C 86% 8.0 mph WSW12.9 kmh WSW 14.0 mph22.5 kmh 29.28 in991.5 mb 0.00 in0.0 mm 0.00 in0.0 mm 0.18 in4.6 mm
02:48 PM 49.5°F9.7°C 45.5°F7.5°C 86% 8.0 mph WSW12.9 kmh WSW 14.0 mph22.5 kmh 29.28 in991.5 mb 0.00 in0.0 mm 0.00 in0.0 mm 0.18 in4.6 mm
02:51 PM 49.6°F9.8°C 45.5°F7.5°C 86% 8.0 mph WSW12.9 kmh WSW 14.0 mph22.5 kmh 29.27 in991.2 mb 0.00 in0.0 mm 0.00 in0.0 mm 0.18 in4.6 mm
02:54 PM 49.8°F9.9°C 45.5°F7.5°C 85% 8.0 mph WSW12.9 kmh WSW 14.0 mph22.5 kmh 29.27 in991.2 mb 0.00 in0.0 mm 0.00 in0.0 mm 0.18 in4.6 mm
02:57 PM 50.2°F10.1°C 45.7°F7.6°C 85% 7.0 mph WSW11.3 kmh WSW 14.0 mph22.5 kmh 29.27 in991.2 mb 0.00 in0.0 mm 0.00 in0.0 mm 0.18 in4.6 mm
03:00 PM 50.2°F10.1°C 45.9°F7.7°C 85% 6.0 mph WSW9.7 kmh WSW 13.0 mph20.9 kmh 29.27 in991.2 mb 0.00 in0.0 mm 0.00 in0.0 mm 0.18 in4.6 mm
03:03 PM 50.2°F10.1°C 45.5°F7.5°C 84% 6.0 mph WSW9.7 kmh WSW 11.0 mph17.7 kmh 29.28 in991.5 mb 0.00 in0.0 mm 0.00 in0.0 mm 0.18 in4.6 mm
03:06 PM 50.2°F10.1°C 45.5°F7.5°C 84% 6.0 mph WSW9.7 kmh WSW 12.0 mph19.3 kmh 29.28 in991.5 mb 0.00 in0.0 mm 0.00 in0.0 mm 0.18 in4.6 mm
03:09 PM 50.2°F10.1°C 45.5°F7.5°C 84% 6.0 mph WSW9.7 kmh WSW 12.0 mph19.3 kmh 29.28 in991.5 mb 0.00 in0.0 mm 0.00 in0.0 mm 0.18 in4.6 mm
03:12 PM 50.2°F10.1°C 45.5°F7.5°C 84% 6.0 mph WSW9.7 kmh WSW 12.0 mph19.3 kmh 29.28 in991.5 mb 0.00 in0.0 mm 0.00 in0.0 mm 0.18 in4.6 mm
03:15 PM 50.0°F10.0°C 45.3°F7.4°C 84% 6.0 mph WSW9.7 kmh WSW 11.0 mph17.7 kmh 29.28 in991.5 mb 0.00 in0.0 mm 0.00 in0.0 mm 0.18 in4.6 mm
03:18 PM 49.8°F9.9°C 45.3°F7.4°C 84% 6.0 mph WSW9.7 kmh WSW 11.0 mph17.7 kmh 29.27 in991.2 mb 0.00 in0.0 mm 0.00 in0.0 mm 0.18 in4.6 mm
03:21 PM 49.8°F9.9°C 45.1°F7.3°C 84% 6.0 mph WSW9.7 kmh WSW 11.0 mph17.7 kmh 29.28 in991.5 mb 0.00 in0.0 mm 0.00 in0.0 mm 0.18 in4.6 mm
03:24 PM 49.8°F9.9°C 45.1°F7.3°C 84% 5.0 mph WSW8.0 kmh WSW 11.0 mph17.7 kmh 29.27 in991.2 mb 0.00 in0.0 mm 0.00 in0.0 mm 0.18 in4.6 mm
03:27 PM 49.6°F9.8°C 45.1°F7.3°C 84% 5.0 mph WSW8.0 kmh WSW 9.0 mph14.5 kmh 29.28 in991.5 mb 0.00 in0.0 mm 0.00 in0.0 mm 0.18 in4.6 mm
03:30 PM 49.6°F9.8°C 45.0°F7.2°C 84% 5.0 mph WSW8.0 kmh WSW 11.0 mph17.7 kmh 29.28 in991.5 mb 0.00 in0.0 mm 0.00 in0.0 mm 0.18 in4.6 mm
03:33 PM 49.5°F9.7°C 44.6°F7.0°C 83% 5.0 mph WSW8.0 kmh WSW 11.0 mph17.7 kmh 29.28 in991.5 mb 0.00 in0.0 mm 0.00 in0.0 mm 0.18 in4.6 mm
03:36 PM 49.5°F9.7°C 44.8°F7.1°C 84% 6.0 mph WSW9.7 kmh WSW 11.0 mph17.7 kmh 29.28 in991.5 mb 0.00 in0.0 mm 0.00 in0.0 mm 0.18 in4.6 mm
03:39 PM 49.3°F9.6°C 44.6°F7.0°C 84% 6.0 mph WSW9.7 kmh WSW 10.0 mph16.1 kmh 29.28 in991.5 mb 0.00 in0.0 mm 0.00 in0.0 mm 0.18 in4.6 mm
03:42 PM 49.1°F9.5°C 44.4°F6.9°C 84% 7.0 mph WSW11.3 kmh WSW 10.0 mph16.1 kmh 29.29 in991.9 mb 0.00 in0.0 mm 0.00 in0.0 mm 0.18 in4.6 mm
03:45 PM 48.9°F9.4°C 44.4°F6.9°C 84% 7.0 mph WSW11.3 kmh WSW 10.0 mph16.1 kmh 29.29 in991.9 mb 0.00 in0.0 mm 0.00 in0.0 mm 0.18 in4.6 mm
03:48 PM 48.9°F9.4°C 44.2°F6.8°C 84% 7.0 mph WSW11.3 kmh WSW 13.0 mph20.9 kmh 29.29 in991.9 mb 0.00 in0.0 mm 0.00 in0.0 mm 0.18 in4.6 mm
03:51 PM 48.7°F9.3°C 44.2°F6.8°C 84% 6.0 mph WSW9.7 kmh WSW 13.0 mph20.9 kmh 29.29 in991.9 mb 0.00 in0.0 mm 0.00 in0.0 mm 0.18 in4.6 mm
03:54 PM 48.7°F9.3°C 44.2°F6.8°C 84% 6.0 mph WSW9.7 kmh WSW 13.0 mph20.9 kmh 29.29 in991.9 mb 0.00 in0.0 mm 0.00 in0.0 mm 0.18 in4.6 mm
03:57 PM 48.7°F9.3°C 44.1°F6.7°C 84% 6.0 mph WSW9.7 kmh WSW 12.0 mph19.3 kmh 29.29 in991.9 mb 0.00 in0.0 mm 0.00 in0.0 mm 0.18 in4.6 mm
04:00 PM 48.6°F9.2°C 43.7°F6.5°C 83% 6.0 mph SW9.7 kmh SW 12.0 mph19.3 kmh 29.29 in991.9 mb 0.00 in0.0 mm 0.00 in0.0 mm 0.18 in4.6 mm
04:03 PM 48.7°F9.3°C 44.1°F6.7°C 84% 5.0 mph WSW8.0 kmh WSW 12.0 mph19.3 kmh 29.29 in991.9 mb 0.00 in0.0 mm 0.00 in0.0 mm 0.18 in4.6 mm
04:06 PM 48.9°F9.4°C 44.2°F6.8°C 84% 5.0 mph WSW8.0 kmh WSW 12.0 mph19.3 kmh 29.29 in991.9 mb 0.00 in0.0 mm 0.00 in0.0 mm 0.18 in4.6 mm
04:09 PM 49.3°F9.6°C 44.6°F7.0°C 84% 5.0 mph SW8.0 kmh SW 12.0 mph19.3 kmh 29.29 in991.9 mb 0.00 in0.0 mm 0.00 in0.0 mm 0.18 in4.6 mm
04:12 PM 49.5°F9.7°C 44.8°F7.1°C 84% 5.0 mph SW8.0 kmh SW 12.0 mph19.3 kmh 29.29 in991.9 mb 0.00 in0.0 mm 0.00 in0.0 mm 0.18 in4.6 mm
04:15 PM 49.6°F9.8°C 44.6°F7.0°C 83% 5.0 mph SW8.0 kmh SW 10.0 mph16.1 kmh 29.30 in992.2 mb 0.00 in0.0 mm 0.00 in0.0 mm 0.18 in4.6 mm
04:18 PM 49.6°F9.8°C 44.8°F7.1°C 83% 5.0 mph SW8.0 kmh SW 10.0 mph16.1 kmh 29.30 in992.2 mb 0.00 in0.0 mm 0.00 in0.0 mm 0.18 in4.6 mm
04:21 PM 49.8°F9.9°C 44.8°F7.1°C 83% 5.0 mph SW8.0 kmh SW 12.0 mph19.3 kmh 29.30 in992.2 mb 0.00 in0.0 mm 0.00 in0.0 mm 0.18 in4.6 mm
04:24 PM 49.8°F9.9°C 44.8°F7.1°C 83% 6.0 mph SW9.7 kmh SW 12.0 mph19.3 kmh 29.30 in992.2 mb 0.00 in0.0 mm 0.00 in0.0 mm 0.18 in4.6 mm
04:27 PM 49.8°F9.9°C 44.8°F7.1°C 83% 6.0 mph SW9.7 kmh SW 12.0 mph19.3 kmh 29.30 in992.2 mb 0.00 in0.0 mm 0.00 in0.0 mm 0.18 in4.6 mm
04:30 PM 49.6°F9.8°C 44.2°F6.8°C 82% 7.0 mph SW11.3 kmh SW 12.0 mph19.3 kmh 29.30 in992.2 mb 0.00 in0.0 mm 0.00 in0.0 mm 0.18 in4.6 mm
04:33 PM 49.5°F9.7°C 44.1°F6.7°C 82% 7.0 mph WSW11.3 kmh WSW 13.0 mph20.9 kmh 29.30 in992.2 mb 0.00 in0.0 mm 0.00 in0.0 mm 0.18 in4.6 mm
04:36 PM 49.1°F9.5°C 43.9°F6.6°C 82% 7.0 mph SW11.3 kmh SW 13.0 mph20.9 kmh 29.30 in992.2 mb 0.00 in0.0 mm 0.00 in0.0 mm 0.18 in4.6 mm
04:39 PM 48.9°F9.4°C 43.9°F6.6°C 83% 7.0 mph SW11.3 kmh SW 13.0 mph20.9 kmh 29.30 in992.2 mb 0.00 in0.0 mm 0.00 in0.0 mm 0.18 in4.6 mm
04:42 PM 48.7°F9.3°C 43.7°F6.5°C 83% 7.0 mph SW11.3 kmh SW 13.0 mph20.9 kmh 29.31 in992.6 mb 0.00 in0.0 mm 0.00 in0.0 mm 0.18 in4.6 mm
04:45 PM 48.6°F9.2°C 43.7°F6.5°C 83% 7.0 mph SW11.3 kmh SW 14.0 mph22.5 kmh 29.31 in992.6 mb 0.00 in0.0 mm 0.00 in0.0 mm 0.18 in4.6 mm
04:48 PM 48.4°F9.1°C 43.5°F6.4°C 83% 6.0 mph SW9.7 kmh SW 14.0 mph22.5 kmh 29.31 in992.6 mb 0.00 in0.0 mm 0.00 in0.0 mm 0.18 in4.6 mm
04:51 PM 48.4°F9.1°C 43.3°F6.3°C 83% 6.0 mph SW9.7 kmh SW 14.0 mph22.5 kmh 29.31 in992.6 mb 0.00 in0.0 mm 0.00 in0.0 mm 0.18 in4.6 mm
04:54 PM 48.2°F9.0°C 43.3°F6.3°C 83% 7.0 mph SW11.3 kmh SW 15.0 mph24.1 kmh 29.31 in992.6 mb 0.00 in0.0 mm 0.00 in0.0 mm 0.18 in4.6 mm
04:57 PM 48.0°F8.9°C 43.2°F6.2°C 83% 7.0 mph SW11.3 kmh SW 15.0 mph24.1 kmh 29.31 in992.6 mb 0.00 in0.0 mm 0.00 in0.0 mm 0.18 in4.6 mm
05:00 PM 48.0°F8.9°C 43.3°F6.3°C 84% 6.0 mph SW9.7 kmh SW 15.0 mph24.1 kmh 29.31 in992.6 mb 0.00 in0.0 mm 0.00 in0.0 mm 0.18 in4.6 mm
05:03 PM 47.8°F8.8°C 43.3°F6.3°C 84% 6.0 mph SW9.7 kmh SW 15.0 mph24.1 kmh 29.31 in992.6 mb 0.00 in0.0 mm 0.00 in0.0 mm 0.18 in4.6 mm
05:06 PM 47.8°F8.8°C 43.2°F6.2°C 84% 5.0 mph SW8.0 kmh SW 10.0 mph16.1 kmh 29.31 in992.6 mb 0.00 in0.0 mm 0.00 in0.0 mm 0.18 in4.6 mm
05:09 PM 47.8°F8.8°C 43.2°F6.2°C 84% 6.0 mph SW9.7 kmh SW 13.0 mph20.9 kmh 29.32 in992.9 mb 0.00 in0.0 mm 0.00 in0.0 mm 0.18 in4.6 mm
05:12 PM 47.8°F8.8°C 43.2°F6.2°C 84% 6.0 mph SW9.7 kmh SW 13.0 mph20.9 kmh 29.32 in992.9 mb 0.00 in0.0 mm 0.00 in0.0 mm 0.18 in4.6 mm
05:15 PM 47.7°F8.7°C 43.0°F6.1°C 84% 7.0 mph SW11.3 kmh SW 16.0 mph25.7 kmh 29.32 in992.9 mb 0.00 in0.0 mm 0.00 in0.0 mm 0.18 in4.6 mm
05:18 PM 47.5°F8.6°C 43.0°F6.1°C 84% 8.0 mph SW12.9 kmh SW 16.0 mph25.7 kmh 29.32 in992.9 mb 0.00 in0.0 mm 0.00 in0.0 mm 0.18 in4.6 mm
05:21 PM 47.5°F8.6°C 42.8°F6.0°C 84% 8.0 mph WSW12.9 kmh WSW 16.0 mph25.7 kmh 29.32 in992.9 mb 0.00 in0.0 mm 0.00 in0.0 mm 0.18 in4.6 mm
05:24 PM 47.1°F8.4°C 42.3°F5.7°C 83% 6.0 mph W9.7 kmh W 14.0 mph22.5 kmh 29.32 in992.9 mb 0.00 in0.0 mm 0.00 in0.0 mm 0.18 in4.6 mm
05:27 PM 46.8°F8.2°C 41.5°F5.3°C 82% 5.0 mph WNW8.0 kmh WNW 12.0 mph19.3 kmh 29.32 in992.9 mb 0.00 in0.0 mm 0.00 in0.0 mm 0.18 in4.6 mm
05:30 PM 46.2°F7.9°C 41.0°F5.0°C 82% 4.0 mph WNW6.4 kmh WNW 12.0 mph19.3 kmh 29.32 in992.9 mb 0.00 in0.0 mm 0.00 in0.0 mm 0.18 in4.6 mm
05:33 PM 45.7°F7.6°C 40.5°F4.7°C 82% 4.0 mph WNW6.4 kmh WNW 12.0 mph19.3 kmh 29.32 in992.9 mb 0.00 in0.0 mm 0.00 in0.0 mm 0.18 in4.6 mm
05:36 PM 45.3°F7.4°C 40.5°F4.7°C 83% 3.0 mph WNW4.8 kmh WNW 8.0 mph12.9 kmh 29.32 in992.9 mb 0.00 in0.0 mm 0.00 in0.0 mm 0.18 in4.6 mm
05:39 PM 45.0°F7.2°C 40.1°F4.5°C 83% 2.0 mph WNW3.2 kmh WNW 7.0 mph11.3 kmh 29.32 in992.9 mb 0.00 in0.0 mm 0.00 in0.0 mm 0.18 in4.6 mm
05:42 PM 44.8°F7.1°C 39.9°F4.4°C 83% 2.0 mph WNW3.2 kmh WNW 7.0 mph11.3 kmh 29.32 in992.9 mb 0.00 in0.0 mm 0.00 in0.0 mm 0.18 in4.6 mm
05:45 PM 44.4°F6.9°C 39.9°F4.4°C 84% 2.0 mph WNW3.2 kmh WNW 7.0 mph11.3 kmh 29.32 in992.9 mb 0.00 in0.0 mm 0.00 in0.0 mm 0.18 in4.6 mm
05:48 PM 44.2°F6.8°C 39.9°F4.4°C 85% 2.0 mph WNW3.2 kmh WNW 4.0 mph6.4 kmh 29.32 in992.9 mb 0.00 in0.0 mm 0.00 in0.0 mm 0.18 in4.6 mm
05:51 PM 44.1°F6.7°C 39.7°F4.3°C 85% 2.0 mph W3.2 kmh W 6.0 mph9.7 kmh 29.32 in992.9 mb 0.00 in0.0 mm 0.00 in0.0 mm 0.18 in4.6 mm
05:54 PM 43.7°F6.5°C 39.6°F4.2°C 85% 3.0 mph WSW4.8 kmh WSW 7.0 mph11.3 kmh 29.32 in992.9 mb 0.00 in0.0 mm 0.00 in0.0 mm 0.18 in4.6 mm
05:57 PM 43.5°F6.4°C 39.6°F4.2°C 86% 3.0 mph WSW4.8 kmh WSW 7.0 mph11.3 kmh 29.32 in992.9 mb 0.00 in0.0 mm 0.00 in0.0 mm 0.18 in4.6 mm
06:00 PM 43.5°F6.4°C 39.6°F4.2°C 86% 3.0 mph WSW4.8 kmh WSW 7.0 mph11.3 kmh 29.33 in993.2 mb 0.00 in0.0 mm 0.00 in0.0 mm 0.18 in4.6 mm
06:03 PM 43.3°F6.3°C 39.7°F4.3°C 87% 3.0 mph SW4.8 kmh SW 6.0 mph9.7 kmh 29.32 in992.9 mb 0.00 in0.0 mm 0.00 in0.0 mm 0.18 in4.6 mm
06:06 PM 43.3°F6.3°C 39.7°F4.3°C 87% 3.0 mph SW4.8 kmh SW 6.0 mph9.7 kmh 29.33 in993.2 mb 0.00 in0.0 mm 0.00 in0.0 mm 0.18 in4.6 mm
06:09 PM 43.3°F6.3°C 39.7°F4.3°C 87% 3.0 mph SW4.8 kmh SW 6.0 mph9.7 kmh 29.32 in992.9 mb 0.00 in0.0 mm 0.00 in0.0 mm 0.18 in4.6 mm
06:12 PM 43.2°F6.2°C 39.6°F4.2°C 87% 3.0 mph SW4.8 kmh SW 6.0 mph9.7 kmh 29.33 in993.2 mb 0.00 in0.0 mm 0.00 in0.0 mm 0.18 in4.6 mm
06:15 PM 43.0°F6.1°C 39.4°F4.1°C 87% 3.0 mph SW4.8 kmh SW 6.0 mph9.7 kmh 29.33 in993.2 mb 0.00 in0.0 mm 0.00 in0.0 mm 0.18 in4.6 mm
06:18 PM 42.6°F5.9°C 39.0°F3.9°C 87% 3.0 mph SW4.8 kmh SW 6.0 mph9.7 kmh 29.33 in993.2 mb 0.00 in0.0 mm 0.00 in0.0 mm 0.18 in4.6 mm
06:21 PM 42.8°F6.0°C 39.7°F4.3°C 89% 3.0 mph SW4.8 kmh SW 7.0 mph11.3 kmh 29.33 in993.2 mb 0.00 in0.0 mm 0.00 in0.0 mm 0.18 in4.6 mm
06:24 PM 43.0°F6.1°C 39.9°F4.4°C 89% 3.0 mph SW4.8 kmh SW 7.0 mph11.3 kmh 29.33 in993.2 mb 0.00 in0.0 mm 0.00 in0.0 mm 0.18 in4.6 mm
06:27 PM 43.2°F6.2°C 40.1°F4.5°C 89% 4.0 mph SSW6.4 kmh SSW 7.0 mph11.3 kmh 29.33 in993.2 mb 0.00 in0.0 mm 0.00 in0.0 mm 0.18 in4.6 mm
06:30 PM 43.2°F6.2°C 40.1°F4.5°C 89% 4.0 mph SSW6.4 kmh SSW 8.0 mph12.9 kmh 29.33 in993.2 mb 0.00 in0.0 mm 0.00 in0.0 mm 0.18 in4.6 mm
06:33 PM 43.3°F6.3°C 40.5°F4.7°C 89% 5.0 mph SSW8.0 kmh SSW 9.0 mph14.5 kmh 29.33 in993.2 mb 0.00 in0.0 mm 0.00 in0.0 mm 0.18 in4.6 mm
06:36 PM 43.5°F6.4°C 40.5°F4.7°C 89% 5.0 mph SSW8.0 kmh SSW 10.0 mph16.1 kmh 29.33 in993.2 mb 0.00 in0.0 mm 0.00 in0.0 mm 0.18 in4.6 mm
06:39 PM 43.5°F6.4°C 40.5°F4.7°C 89% 5.0 mph SW8.0 kmh SW 11.0 mph17.7 kmh 29.33 in993.2 mb 0.00 in0.0 mm 0.00 in0.0 mm 0.18 in4.6 mm
06:42 PM 43.5°F6.4°C 40.5°F4.7°C 89% 5.0 mph SW8.0 kmh SW 11.0 mph17.7 kmh 29.33 in993.2 mb 0.00 in0.0 mm 0.00 in0.0 mm 0.18 in4.6 mm
06:45 PM 43.5°F6.4°C 40.5°F4.7°C 89% 5.0 mph SW8.0 kmh SW 11.0 mph17.7 kmh 29.33 in993.2 mb 0.00 in0.0 mm 0.00 in0.0 mm 0.18 in4.6 mm
06:48 PM 43.5°F6.4°C 40.6°F4.8°C 89% 6.0 mph SW9.7 kmh SW 12.0 mph19.3 kmh 29.33 in993.2 mb 0.00 in0.0 mm 0.00 in0.0 mm 0.18 in4.6 mm
06:51 PM 43.5°F6.4°C 40.3°F4.6°C 88% 6.0 mph SW9.7 kmh SW 12.0 mph19.3 kmh 29.33 in993.2 mb 0.00 in0.0 mm 0.00 in0.0 mm 0.18 in4.6 mm
06:54 PM 43.5°F6.4°C 40.3°F4.6°C 88% 7.0 mph SW11.3 kmh SW 16.0 mph25.7 kmh 29.33 in993.2 mb 0.00 in0.0 mm 0.00 in0.0 mm 0.18 in4.6 mm
06:57 PM 43.7°F6.5°C 40.5°F4.7°C 88% 7.0 mph SW11.3 kmh SW 16.0 mph25.7 kmh 29.33 in993.2 mb 0.00 in0.0 mm 0.00 in0.0 mm 0.18 in4.6 mm
07:00 PM 43.7°F6.5°C 40.5°F4.7°C 88% 7.0 mph SW11.3 kmh SW 16.0 mph25.7 kmh 29.33 in993.2 mb 0.00 in0.0 mm 0.00 in0.0 mm 0.18 in4.6 mm
07:03 PM 43.7°F6.5°C 40.6°F4.8°C 89% 7.0 mph SW11.3 kmh SW 16.0 mph25.7 kmh 29.33 in993.2 mb 0.00 in0.0 mm 0.00 in0.0 mm 0.18 in4.6 mm
07:06 PM 43.7°F6.5°C 40.6°F4.8°C 89% 7.0 mph SW11.3 kmh SW 14.0 mph22.5 kmh 29.33 in993.2 mb 0.00 in0.0 mm 0.00 in0.0 mm 0.18 in4.6 mm
07:09 PM 43.9°F6.6°C 40.8°F4.9°C 89% 7.0 mph SW11.3 kmh SW 14.0 mph22.5 kmh 29.33 in993.2 mb 0.00 in0.0 mm 0.00 in0.0 mm 0.18 in4.6 mm
07:12 PM 43.9°F6.6°C 40.8°F4.9°C 89% 7.0 mph SW11.3 kmh SW 14.0 mph22.5 kmh 29.33 in993.2 mb 0.00 in0.0 mm 0.00 in0.0 mm 0.18 in4.6 mm
07:15 PM 43.9°F6.6°C 41.2°F5.1°C 90% 7.0 mph SW11.3 kmh SW 14.0 mph22.5 kmh 29.33 in993.2 mb 0.00 in0.0 mm 0.00 in0.0 mm 0.18 in4.6 mm
07:18 PM 44.1°F6.7°C 41.2°F5.1°C 90% 7.0 mph SW11.3 kmh SW 14.0 mph22.5 kmh 29.34 in993.6 mb 0.00 in0.0 mm 0.00 in0.0 mm 0.18 in4.6 mm
07:21 PM 44.1°F6.7°C 41.2°F5.1°C 90% 7.0 mph SW11.3 kmh SW 14.0 mph22.5 kmh 29.34 in993.6 mb 0.00 in0.0 mm 0.00 in0.0 mm 0.18 in4.6 mm
07:24 PM 44.1°F6.7°C 41.2°F5.1°C 90% 7.0 mph SW11.3 kmh SW 14.0 mph22.5 kmh 29.34 in993.6 mb 0.00 in0.0 mm 0.00 in0.0 mm 0.18 in4.6 mm
07:27 PM 44.1°F6.7°C 41.2°F5.1°C 90% 7.0 mph SW11.3 kmh SW 14.0 mph22.5 kmh 29.34 in993.6 mb 0.00 in0.0 mm 0.00 in0.0 mm 0.18 in4.6 mm
07:30 PM 44.1°F6.7°C 41.4°F5.2°C 90% 7.0 mph SW11.3 kmh SW 14.0 mph22.5 kmh 29.34 in993.6 mb 0.00 in0.0 mm 0.00 in0.0 mm 0.18 in4.6 mm
07:33 PM 44.1°F6.7°C 41.4°F5.2°C 90% 7.0 mph SW11.3 kmh SW 15.0 mph24.1 kmh 29.34 in993.6 mb 0.00 in0.0 mm 0.00 in0.0 mm 0.18 in4.6 mm
07:36 PM 44.1°F6.7°C 41.4°F5.2°C 90% 7.0 mph SW11.3 kmh SW 15.0 mph24.1 kmh 29.34 in993.6 mb 0.00 in0.0 mm 0.00 in0.0 mm 0.18 in4.6 mm
07:39 PM 44.1°F6.7°C 41.4°F5.2°C 90% 8.0 mph SW12.9 kmh SW 15.0 mph24.1 kmh 29.34 in993.6 mb 0.00 in0.0 mm 0.00 in0.0 mm 0.18 in4.6 mm
07:42 PM 44.2°F6.8°C 41.7°F5.4°C 91% 8.0 mph SW12.9 kmh SW 15.0 mph24.1 kmh 29.34 in993.6 mb 0.00 in0.0 mm 0.00 in0.0 mm 0.18 in4.6 mm
07:45 PM 44.2°F6.8°C 41.7°F5.4°C 91% 8.0 mph SW12.9 kmh SW 15.0 mph24.1 kmh 29.34 in993.6 mb 0.00 in0.0 mm 0.00 in0.0 mm 0.18 in4.6 mm
07:48 PM 44.2°F6.8°C 41.7°F5.4°C 91% 8.0 mph SW12.9 kmh SW 15.0 mph24.1 kmh 29.34 in993.6 mb 0.00 in0.0 mm 0.00 in0.0 mm 0.18 in4.6 mm
07:51 PM 44.2°F6.8°C 41.9°F5.5°C 91% 8.0 mph SW12.9 kmh SW 15.0 mph24.1 kmh 29.34 in993.6 mb 0.00 in0.0 mm 0.00 in0.0 mm 0.18 in4.6 mm
07:54 PM 44.4°F6.9°C 41.9°F5.5°C 91% 7.0 mph SW11.3 kmh SW 15.0 mph24.1 kmh 29.34 in993.6 mb 0.00 in0.0 mm 0.00 in0.0 mm 0.18 in4.6 mm
07:57 PM 44.4°F6.9°C 41.9°F5.5°C 91% 7.0 mph SW11.3 kmh SW 15.0 mph24.1 kmh 29.34 in993.6 mb 0.00 in0.0 mm 0.00 in0.0 mm 0.18 in4.6 mm
08:00 PM 44.4°F6.9°C 42.1°F5.6°C 91% 7.0 mph SW11.3 kmh SW 15.0 mph24.1 kmh 29.35 in993.9 mb 0.00 in0.0 mm 0.00 in0.0 mm 0.18 in4.6 mm
08:03 PM 44.6°F7.0°C 42.1°F5.6°C 91% 7.0 mph SW11.3 kmh SW 12.0 mph19.3 kmh 29.35 in993.9 mb 0.00 in0.0 mm 0.00 in0.0 mm 0.18 in4.6 mm
08:06 PM 44.6°F7.0°C 42.1°F5.6°C 91% 6.0 mph WSW9.7 kmh WSW 12.0 mph19.3 kmh 29.35 in993.9 mb 0.00 in0.0 mm 0.00 in0.0 mm 0.18 in4.6 mm
08:09 PM 44.8°F7.1°C 42.3°F5.7°C 91% 6.0 mph WSW9.7 kmh WSW 11.0 mph17.7 kmh 29.35 in993.9 mb 0.01 in0.3 mm 0.20 in5.1 mm 0.19 in4.8 mm
08:12 PM 45.0°F7.2°C 42.4°F5.8°C 91% 6.0 mph WSW9.7 kmh WSW 11.0 mph17.7 kmh 29.35 in993.9 mb 0.02 in0.5 mm 0.20 in5.1 mm 0.20 in5.1 mm
08:15 PM 45.0°F7.2°C 42.8°F6.0°C 92% 6.0 mph WSW9.7 kmh WSW 14.0 mph22.5 kmh 29.36 in994.2 mb 0.02 in0.5 mm 0.00 in0.0 mm 0.20 in5.1 mm
08:18 PM 44.8°F7.1°C 42.6°F5.9°C 92% 7.0 mph WSW11.3 kmh WSW 16.0 mph25.7 kmh 29.36 in994.2 mb 0.02 in0.5 mm 0.00 in0.0 mm 0.20 in5.1 mm
08:21 PM 44.8°F7.1°C 42.6°F5.9°C 92% 7.0 mph WSW11.3 kmh WSW 16.0 mph25.7 kmh 29.36 in994.2 mb 0.03 in0.8 mm 0.20 in5.1 mm 0.21 in5.3 mm
08:24 PM 44.6°F7.0°C 42.1°F5.6°C 91% 7.0 mph W11.3 kmh W 16.0 mph25.7 kmh 29.36 in994.2 mb 0.03 in0.8 mm 0.00 in0.0 mm 0.21 in5.3 mm
08:27 PM 44.1°F6.7°C 41.5°F5.3°C 91% 7.0 mph W11.3 kmh W 14.0 mph22.5 kmh 29.36 in994.2 mb 0.03 in0.8 mm 0.00 in0.0 mm 0.21 in5.3 mm
08:30 PM 43.5°F6.4°C 41.0°F5.0°C 91% 8.0 mph W12.9 kmh W 15.0 mph24.1 kmh 29.36 in994.2 mb 0.03 in0.8 mm 0.00 in0.0 mm 0.21 in5.3 mm
08:33 PM 43.2°F6.2°C 40.8°F4.9°C 91% 9.0 mph WSW14.5 kmh WSW 15.0 mph24.1 kmh 29.36 in994.2 mb 0.04 in1.0 mm 0.20 in5.1 mm 0.22 in5.6 mm
08:36 PM 43.0°F6.1°C 40.5°F4.7°C 91% 9.0 mph WSW14.5 kmh WSW 15.0 mph24.1 kmh 29.36 in994.2 mb 0.04 in1.0 mm 0.00 in0.0 mm 0.22 in5.6 mm
08:39 PM 42.6°F5.9°C 40.3°F4.6°C 91% 9.0 mph WSW14.5 kmh WSW 16.0 mph25.7 kmh 29.36 in994.2 mb 0.04 in1.0 mm 0.00 in0.0 mm 0.22 in5.6 mm
08:42 PM 42.6°F5.9°C 40.5°F4.7°C 92% 8.0 mph WSW12.9 kmh WSW 16.0 mph25.7 kmh 29.36 in994.2 mb 0.04 in1.0 mm 0.00 in0.0 mm 0.22 in5.6 mm
08:45 PM 42.4°F5.8°C 40.3°F4.6°C 92% 8.0 mph WSW12.9 kmh WSW 16.0 mph25.7 kmh 29.36 in994.2 mb 0.04 in1.0 mm 0.00 in0.0 mm 0.22 in5.6 mm
08:48 PM 42.4°F5.8°C 40.3°F4.6°C 92% 8.0 mph WSW12.9 kmh WSW 16.0 mph25.7 kmh 29.36 in994.2 mb 0.04 in1.0 mm 0.00 in0.0 mm 0.22 in5.6 mm
08:51 PM 42.4°F5.8°C 40.3°F4.6°C 92% 7.0 mph WSW11.3 kmh WSW 12.0 mph19.3 kmh 29.36 in994.2 mb 0.04 in1.0 mm 0.00 in0.0 mm 0.22 in5.6 mm
08:54 PM 42.3°F5.7°C 40.1°F4.5°C 92% 7.0 mph WSW11.3 kmh WSW 12.0 mph19.3 kmh 29.36 in994.2 mb 0.04 in1.0 mm 0.00 in0.0 mm 0.22 in5.6 mm
08:57 PM 42.3°F5.7°C 40.1°F4.5°C 92% 6.0 mph WSW9.7 kmh WSW 11.0 mph17.7 kmh 29.36 in994.2 mb 0.04 in1.0 mm 0.00 in0.0 mm 0.22 in5.6 mm
09:00 PM 42.3°F5.7°C 40.1°F4.5°C 92% 6.0 mph SW9.7 kmh SW 11.0 mph17.7 kmh 29.36 in994.2 mb 0.04 in1.0 mm 0.00 in0.0 mm 0.22 in5.6 mm
09:03 PM 42.3°F5.7°C 40.1°F4.5°C 92% 6.0 mph SW9.7 kmh SW 11.0 mph17.7 kmh 29.36 in994.2 mb 0.04 in1.0 mm 0.00 in0.0 mm 0.22 in5.6 mm
09:06 PM 42.3°F5.7°C 40.3°F4.6°C 93% 6.0 mph SW9.7 kmh SW 11.0 mph17.7 kmh 29.36 in994.2 mb 0.04 in1.0 mm 0.00 in0.0 mm 0.22 in5.6 mm
09:09 PM 42.1°F5.6°C 40.3°F4.6°C 93% 5.0 mph SW8.0 kmh SW 11.0 mph17.7 kmh 29.36 in994.2 mb 0.03 in0.8 mm 0.00 in0.0 mm 0.22 in5.6 mm
09:12 PM 42.1°F5.6°C 40.3°F4.6°C 93% 5.0 mph SW8.0 kmh SW 11.0 mph17.7 kmh 29.35 in993.9 mb 0.02 in0.5 mm 0.00 in0.0 mm 0.22 in5.6 mm
09:15 PM 42.1°F5.6°C 39.9°F4.4°C 92% 5.0 mph SW8.0 kmh SW 12.0 mph19.3 kmh 29.36 in994.2 mb 0.02 in0.5 mm 0.00 in0.0 mm 0.22 in5.6 mm
09:18 PM 42.1°F5.6°C 39.9°F4.4°C 92% 6.0 mph SW9.7 kmh SW 12.0 mph19.3 kmh 29.36 in994.2 mb 0.02 in0.5 mm 0.00 in0.0 mm 0.22 in5.6 mm
09:21 PM 41.9°F5.5°C 39.7°F4.3°C 92% 6.0 mph WSW9.7 kmh WSW 14.0 mph22.5 kmh 29.36 in994.2 mb 0.01 in0.3 mm 0.00 in0.0 mm 0.22 in5.6 mm
09:24 PM 41.7°F5.4°C 39.6°F4.2°C 92% 8.0 mph WSW12.9 kmh WSW 14.0 mph22.5 kmh 29.36 in994.2 mb 0.01 in0.3 mm 0.00 in0.0 mm 0.22 in5.6 mm
09:27 PM 41.7°F5.4°C 39.6°F4.2°C 92% 9.0 mph WSW14.5 kmh WSW 14.0 mph22.5 kmh 29.36 in994.2 mb 0.01 in0.3 mm 0.00 in0.0 mm 0.22 in5.6 mm
09:30 PM 41.7°F5.4°C 39.7°F4.3°C 93% 9.0 mph WSW14.5 kmh WSW 14.0 mph22.5 kmh 29.37 in994.6 mb 0.01 in0.3 mm 0.00 in0.0 mm 0.22 in5.6 mm
09:33 PM 41.7°F5.4°C 39.6°F4.2°C 92% 9.0 mph WSW14.5 kmh WSW 14.0 mph22.5 kmh 29.37 in994.6 mb 0.00 in0.0 mm 0.00 in0.0 mm 0.22 in5.6 mm
09:36 PM 41.5°F5.3°C 39.4°F4.1°C 92% 9.0 mph WSW14.5 kmh WSW 15.0 mph24.1 kmh 29.37 in994.6 mb 0.00 in0.0 mm 0.00 in0.0 mm 0.22 in5.6 mm
09:39 PM 41.5°F5.3°C 39.4°F4.1°C 92% 9.0 mph WSW14.5 kmh WSW 15.0 mph24.1 kmh 29.37 in994.6 mb 0.00 in0.0 mm 0.00 in0.0 mm 0.22 in5.6 mm
09:42 PM 41.4°F5.2°C 39.2°F4.0°C 92% 8.0 mph WSW12.9 kmh WSW 15.0 mph24.1 kmh 29.37 in994.6 mb 0.00 in0.0 mm 0.00 in0.0 mm 0.22 in5.6 mm
09:45 PM 41.4°F5.2°C 39.2°F4.0°C 92% 8.0 mph WSW12.9 kmh WSW 15.0 mph24.1 kmh 29.37 in994.6 mb 0.00 in0.0 mm 0.00 in0.0 mm 0.22 in5.6 mm
09:48 PM 41.4°F5.2°C 39.2°F4.0°C 92% 7.0 mph WSW11.3 kmh WSW 12.0 mph19.3 kmh 29.37 in994.6 mb 0.00 in0.0 mm 0.00 in0.0 mm 0.22 in5.6 mm
09:51 PM 41.2°F5.1°C 39.0°F3.9°C 92% 7.0 mph WSW11.3 kmh WSW 11.0 mph17.7 kmh 29.37 in994.6 mb 0.00 in0.0 mm 0.00 in0.0 mm 0.22 in5.6 mm
09:54 PM 41.2°F5.1°C 39.0°F3.9°C 92% 7.0 mph WSW11.3 kmh WSW 11.0 mph17.7 kmh 29.37 in994.6 mb 0.00 in0.0 mm 0.00 in0.0 mm 0.22 in5.6 mm
09:57 PM 41.2°F5.1°C 39.0°F3.9°C 92% 6.0 mph WSW9.7 kmh WSW 10.0 mph16.1 kmh 29.37 in994.6 mb 0.00 in0.0 mm 0.00 in0.0 mm 0.22 in5.6 mm
10:00 PM 41.2°F5.1°C 39.0°F3.9°C 92% 6.0 mph WSW9.7 kmh WSW 12.0 mph19.3 kmh 29.37 in994.6 mb 0.00 in0.0 mm 0.00 in0.0 mm 0.22 in5.6 mm
10:03 PM 41.2°F5.1°C 39.0°F3.9°C 92% 7.0 mph WSW11.3 kmh WSW 13.0 mph20.9 kmh 29.37 in994.6 mb 0.00 in0.0 mm 0.00 in0.0 mm 0.22 in5.6 mm
10:06 PM 41.2°F5.1°C 39.2°F4.0°C 93% 7.0 mph WSW11.3 kmh WSW 13.0 mph20.9 kmh 29.37 in994.6 mb 0.00 in0.0 mm 0.00 in0.0 mm 0.22 in5.6 mm
10:09 PM 41.2°F5.1°C 39.4°F4.1°C 93% 8.0 mph WSW12.9 kmh WSW 13.0 mph20.9 kmh 29.38 in994.9 mb 0.00 in0.0 mm 0.00 in0.0 mm 0.22 in5.6 mm
10:12 PM 41.2°F5.1°C 39.4°F4.1°C 93% 8.0 mph WSW12.9 kmh WSW 13.0 mph20.9 kmh 29.38 in994.9 mb 0.00 in0.0 mm 0.00 in0.0 mm 0.22 in5.6 mm
10:15 PM 41.4°F5.2°C 39.4°F4.1°C 93% 8.0 mph WSW12.9 kmh WSW 13.0 mph20.9 kmh 29.38 in994.9 mb 0.00 in0.0 mm 0.00 in0.0 mm 0.22 in5.6 mm
10:18 PM 41.4°F5.2°C 39.6°F4.2°C 93% 8.0 mph WSW12.9 kmh WSW 13.0 mph20.9 kmh 29.38 in994.9 mb 0.00 in0.0 mm 0.00 in0.0 mm 0.22 in5.6 mm
10:21 PM 41.4°F5.2°C 39.6°F4.2°C 93% 7.0 mph WSW11.3 kmh WSW 13.0 mph20.9 kmh 29.38 in994.9 mb 0.00 in0.0 mm 0.00 in0.0 mm 0.22 in5.6 mm
10:24 PM 41.4°F5.2°C 39.6°F4.2°C 93% 7.0 mph WSW11.3 kmh WSW 13.0 mph20.9 kmh 29.38 in994.9 mb 0.00 in0.0 mm 0.00 in0.0 mm 0.22 in5.6 mm
10:27 PM 41.5°F5.3°C 39.6°F4.2°C 93% 8.0 mph WSW12.9 kmh WSW 14.0 mph22.5 kmh 29.38 in994.9 mb 0.00 in0.0 mm 0.00 in0.0 mm 0.22 in5.6 mm
10:30 PM 41.5°F5.3°C 39.6°F4.2°C 93% 8.0 mph WSW12.9 kmh WSW 14.0 mph22.5 kmh 29.39 in995.3 mb 0.00 in0.0 mm 0.00 in0.0 mm 0.22 in5.6 mm
10:33 PM 41.5°F5.3°C 39.6°F4.2°C 93% 8.0 mph WSW12.9 kmh WSW 14.0 mph22.5 kmh 29.39 in995.3 mb 0.00 in0.0 mm 0.00 in0.0 mm 0.22 in5.6 mm
10:36 PM 41.5°F5.3°C 39.6°F4.2°C 93% 8.0 mph WSW12.9 kmh WSW 14.0 mph22.5 kmh 29.39 in995.3 mb 0.00 in0.0 mm 0.00 in0.0 mm 0.22 in5.6 mm
10:39 PM 41.5°F5.3°C 39.7°F4.3°C 93% 7.0 mph WSW11.3 kmh WSW 12.0 mph19.3 kmh 29.39 in995.3 mb 0.00 in0.0 mm 0.00 in0.0 mm 0.22 in5.6 mm
10:42 PM 41.7°F5.4°C 39.7°F4.3°C 93% 6.0 mph WSW9.7 kmh WSW 12.0 mph19.3 kmh 29.40 in995.6 mb 0.00 in0.0 mm 0.00 in0.0 mm 0.22 in5.6 mm
10:45 PM 41.7°F5.4°C 39.9°F4.4°C 93% 6.0 mph W9.7 kmh W 20.0 mph32.2 kmh 29.41 in995.9 mb 0.00 in0.0 mm 0.00 in0.0 mm 0.22 in5.6 mm
10:48 PM 41.7°F5.4°C 39.7°F4.3°C 93% 6.0 mph W9.7 kmh W 20.0 mph32.2 kmh 29.41 in995.9 mb 0.00 in0.0 mm 0.00 in0.0 mm 0.22 in5.6 mm
10:51 PM 41.7°F5.4°C 39.7°F4.3°C 93% 8.0 mph W12.9 kmh W 20.0 mph32.2 kmh 29.41 in995.9 mb 0.01 in0.3 mm 0.20 in5.1 mm 0.23 in5.8 mm
10:54 PM 41.7°F5.4°C 39.7°F4.3°C 93% 8.0 mph WSW12.9 kmh WSW 20.0 mph32.2 kmh 29.41 in995.9 mb 0.01 in0.3 mm 0.00 in0.0 mm 0.23 in5.8 mm
10:57 PM 41.5°F5.3°C 39.7°F4.3°C 93% 8.0 mph WSW12.9 kmh WSW 16.0 mph25.7 kmh 29.42 in996.3 mb 0.01 in0.3 mm 0.00 in0.0 mm 0.23 in5.8 mm
11:00 PM 41.5°F5.3°C 39.7°F4.3°C 93% 9.0 mph W14.5 kmh W 16.0 mph25.7 kmh 29.41 in995.9 mb 0.02 in0.5 mm 0.01 in0.3 mm 0.24 in6.1 mm
11:03 PM 41.5°F5.3°C 39.6°F4.2°C 93% 8.0 mph W12.9 kmh W 16.0 mph25.7 kmh 29.42 in996.3 mb 0.02 in0.5 mm 0.00 in0.0 mm 0.24 in6.1 mm
11:06 PM 41.4°F5.2°C 39.4°F4.1°C 93% 8.0 mph W12.9 kmh W 19.0 mph30.6 kmh 29.42 in996.3 mb 0.02 in0.5 mm 0.00 in0.0 mm 0.24 in6.1 mm
11:09 PM 41.2°F5.1°C 39.4°F4.1°C 93% 9.0 mph W14.5 kmh W 19.0 mph30.6 kmh 29.41 in995.9 mb 0.02 in0.5 mm 0.00 in0.0 mm 0.24 in6.1 mm
11:12 PM 41.2°F5.1°C 39.0°F3.9°C 92% 8.0 mph W12.9 kmh W 19.0 mph30.6 kmh 29.41 in995.9 mb 0.02 in0.5 mm 0.00 in0.0 mm 0.24 in6.1 mm
11:15 PM 40.8°F4.9°C 39.0°F3.9°C 93% 7.0 mph W11.3 kmh W 19.0 mph30.6 kmh 29.42 in996.3 mb 0.02 in0.5 mm 0.00 in0.0 mm 0.24 in6.1 mm
11:18 PM 40.8°F4.9°C 38.8°F3.8°C 92% 7.0 mph W11.3 kmh W 14.0 mph22.5 kmh 29.41 in995.9 mb 0.02 in0.5 mm 0.00 in0.0 mm 0.24 in6.1 mm
11:21 PM 40.8°F4.9°C 39.0°F3.9°C 93% 7.0 mph W11.3 kmh W 14.0 mph22.5 kmh 29.41 in995.9 mb 0.02 in0.5 mm 0.00 in0.0 mm 0.24 in6.1 mm
11:24 PM 40.6°F4.8°C 38.5°F3.6°C 92% 7.0 mph W11.3 kmh W 14.0 mph22.5 kmh 29.41 in995.9 mb 0.02 in0.5 mm 0.00 in0.0 mm 0.24 in6.1 mm
11:27 PM 40.6°F4.8°C 38.5°F3.6°C 92% 8.0 mph WSW12.9 kmh WSW 13.0 mph20.9 kmh 29.42 in996.3 mb 0.02 in0.5 mm 0.00 in0.0 mm 0.24 in6.1 mm
11:30 PM 40.6°F4.8°C 38.5°F3.6°C 92% 7.0 mph WSW11.3 kmh WSW 13.0 mph20.9 kmh 29.42 in996.3 mb 0.02 in0.5 mm 0.00 in0.0 mm 0.24 in6.1 mm
11:33 PM 40.5°F4.7°C 38.3°F3.5°C 92% 7.0 mph WSW11.3 kmh WSW 13.0 mph20.9 kmh 29.41 in995.9 mb 0.02 in0.5 mm 0.00 in0.0 mm 0.24 in6.1 mm
11:36 PM 40.5°F4.7°C 38.3°F3.5°C 92% 6.0 mph WSW9.7 kmh WSW 13.0 mph20.9 kmh 29.42 in996.3 mb 0.02 in0.5 mm 0.00 in0.0 mm 0.24 in6.1 mm
11:39 PM 40.5°F4.7°C 38.3°F3.5°C 92% 6.0 mph WSW9.7 kmh WSW 13.0 mph20.9 kmh 29.42 in996.3 mb 0.02 in0.5 mm 0.00 in0.0 mm 0.24 in6.1 mm
11:42 PM 40.3°F4.6°C 38.1°F3.4°C 92% 6.0 mph W9.7 kmh W 12.0 mph19.3 kmh 29.42 in996.3 mb 0.02 in0.5 mm 0.00 in0.0 mm 0.24 in6.1 mm
11:45 PM 40.3°F4.6°C 38.1°F3.4°C 92% 6.0 mph W9.7 kmh W 12.0 mph19.3 kmh 29.43 in996.6 mb 0.02 in0.5 mm 0.00 in0.0 mm 0.24 in6.1 mm
11:48 PM 39.9°F4.4°C 37.9°F3.3°C 92% 5.0 mph W8.0 kmh W 12.0 mph19.3 kmh 29.43 in996.6 mb 0.02 in0.5 mm 0.00 in0.0 mm 0.24 in6.1 mm
11:51 PM 39.9°F4.4°C 37.9°F3.3°C 92% 5.0 mph W8.0 kmh W 12.0 mph19.3 kmh 29.43 in996.6 mb 0.02 in0.5 mm 0.00 in0.0 mm 0.24 in6.1 mm
11:54 PM 39.9°F4.4°C 37.8°F3.2°C 92% 5.0 mph WSW8.0 kmh WSW 11.0 mph17.7 kmh 29.43 in996.6 mb 0.02 in0.5 mm 0.00 in0.0 mm 0.24 in6.1 mm
11:57 PM 39.7°F4.3°C 37.6°F3.1°C 92% 5.0 mph WSW8.0 kmh WSW 9.0 mph14.5 kmh 29.43 in996.6 mb 0.02 in0.5 mm 0.00 in0.0 mm 0.24 in6.1 mm